<?xml version="1.0" encoding="UTF-8" standalone="no" ?>
<gpx xmlns="http://www.topografix.com/GPX/1/1" xmlns:xsi="http://www.w3.org/2001/XMLSchema-instance" xsi:schemaLocation="http://www.topografix.com/GPX/1/1 http://www.topografix.com/GPX/1/1/gpx.xsd" version="1.1" creator="VisuGPX - https://www.visugpx.com">
  <metadata>
    <name>Petit Bargy</name>
    <desc><![CDATA[depuis le Reposoir                                           ]]></desc>
  </metadata>
  <trk>
    <name><![CDATA[20190204124347-quCmh]]></name>
    <trkseg>
      <trkpt lat="46.00492" lon="6.51543">
        <ele>1223.42</ele>
        <time>2019-01-15T12:28:54Z</time>
      </trkpt>
      <trkpt lat="46.00492" lon="6.51544">
        <ele>1127.28</ele>
        <time>2019-01-15T12:28:55Z</time>
      </trkpt>
      <trkpt lat="46.00493" lon="6.51544">
        <ele>1127.28</ele>
        <time>2019-01-15T12:28:56Z</time>
      </trkpt>
      <trkpt lat="46.00494" lon="6.51547">
        <ele>1223.9</ele>
        <time>2019-01-15T12:28:59Z</time>
      </trkpt>
      <trkpt lat="46.00495" lon="6.51548">
        <ele>1223.9</ele>
        <time>2019-01-15T12:29:00Z</time>
      </trkpt>
      <trkpt lat="46.00496" lon="6.51549">
        <ele>1223.9</ele>
        <time>2019-01-15T12:29:01Z</time>
      </trkpt>
      <trkpt lat="46.00511" lon="6.5157">
        <ele>1226.78</ele>
        <time>2019-01-15T12:29:21Z</time>
      </trkpt>
      <trkpt lat="46.00528" lon="6.51581">
        <ele>1229.66</ele>
        <time>2019-01-15T12:29:38Z</time>
      </trkpt>
      <trkpt lat="46.00554" lon="6.51578">
        <ele>1233.03</ele>
        <time>2019-01-15T12:30:05Z</time>
      </trkpt>
      <trkpt lat="46.00555" lon="6.51578">
        <ele>1233.03</ele>
        <time>2019-01-15T12:30:06Z</time>
      </trkpt>
      <trkpt lat="46.00556" lon="6.51577">
        <ele>1233.03</ele>
        <time>2019-01-15T12:30:07Z</time>
      </trkpt>
      <trkpt lat="46.00558" lon="6.51577">
        <ele>1233.03</ele>
        <time>2019-01-15T12:30:08Z</time>
      </trkpt>
      <trkpt lat="46.00559" lon="6.51577">
        <ele>1233.03</ele>
        <time>2019-01-15T12:30:09Z</time>
      </trkpt>
      <trkpt lat="46.00559" lon="6.51576">
        <ele>1233.03</ele>
        <time>2019-01-15T12:30:10Z</time>
      </trkpt>
      <trkpt lat="46.0056" lon="6.51575">
        <ele>1233.03</ele>
        <time>2019-01-15T12:30:11Z</time>
      </trkpt>
      <trkpt lat="46.00562" lon="6.51575">
        <ele>1233.51</ele>
        <time>2019-01-15T12:30:12Z</time>
      </trkpt>
      <trkpt lat="46.00563" lon="6.51575">
        <ele>1233.51</ele>
        <time>2019-01-15T12:30:13Z</time>
      </trkpt>
      <trkpt lat="46.00564" lon="6.51574">
        <ele>1233.99</ele>
        <time>2019-01-15T12:30:14Z</time>
      </trkpt>
      <trkpt lat="46.00581" lon="6.51573">
        <ele>1235.43</ele>
        <time>2019-01-15T12:30:27Z</time>
      </trkpt>
      <trkpt lat="46.00582" lon="6.51573">
        <ele>1235.43</ele>
        <time>2019-01-15T12:30:28Z</time>
      </trkpt>
      <trkpt lat="46.00583" lon="6.51573">
        <ele>1235.43</ele>
        <time>2019-01-15T12:30:29Z</time>
      </trkpt>
      <trkpt lat="46.00585" lon="6.51574">
        <ele>1235.43</ele>
        <time>2019-01-15T12:30:30Z</time>
      </trkpt>
      <trkpt lat="46.00586" lon="6.51574">
        <ele>1235.91</ele>
        <time>2019-01-15T12:30:31Z</time>
      </trkpt>
      <trkpt lat="46.00587" lon="6.51575">
        <ele>1235.91</ele>
        <time>2019-01-15T12:30:32Z</time>
      </trkpt>
      <trkpt lat="46.00612" lon="6.5157">
        <ele>1238.32</ele>
        <time>2019-01-15T12:30:53Z</time>
      </trkpt>
      <trkpt lat="46.00613" lon="6.51569">
        <ele>1238.32</ele>
        <time>2019-01-15T12:30:54Z</time>
      </trkpt>
      <trkpt lat="46.00617" lon="6.51566">
        <ele>1238.8</ele>
        <time>2019-01-15T12:30:58Z</time>
      </trkpt>
      <trkpt lat="46.00618" lon="6.51565">
        <ele>1238.8</ele>
        <time>2019-01-15T12:30:59Z</time>
      </trkpt>
      <trkpt lat="46.00619" lon="6.51564">
        <ele>1238.8</ele>
        <time>2019-01-15T12:31:00Z</time>
      </trkpt>
      <trkpt lat="46.0062" lon="6.51564">
        <ele>1239.28</ele>
        <time>2019-01-15T12:31:01Z</time>
      </trkpt>
      <trkpt lat="46.00622" lon="6.51563">
        <ele>1239.28</ele>
        <time>2019-01-15T12:31:02Z</time>
      </trkpt>
      <trkpt lat="46.00623" lon="6.51563">
        <ele>1239.28</ele>
        <time>2019-01-15T12:31:03Z</time>
      </trkpt>
      <trkpt lat="46.00624" lon="6.51563">
        <ele>1239.76</ele>
        <time>2019-01-15T12:31:04Z</time>
      </trkpt>
      <trkpt lat="46.00626" lon="6.51563">
        <ele>1239.76</ele>
        <time>2019-01-15T12:31:05Z</time>
      </trkpt>
      <trkpt lat="46.00627" lon="6.51561">
        <ele>1240.24</ele>
        <time>2019-01-15T12:31:08Z</time>
      </trkpt>
      <trkpt lat="46.00628" lon="6.51561">
        <ele>1240.24</ele>
        <time>2019-01-15T12:31:09Z</time>
      </trkpt>
      <trkpt lat="46.00633" lon="6.51557">
        <ele>1241.2</ele>
        <time>2019-01-15T12:31:14Z</time>
      </trkpt>
      <trkpt lat="46.00634" lon="6.51555">
        <ele>1241.2</ele>
        <time>2019-01-15T12:31:15Z</time>
      </trkpt>
      <trkpt lat="46.00635" lon="6.51553">
        <ele>1241.68</ele>
        <time>2019-01-15T12:31:17Z</time>
      </trkpt>
      <trkpt lat="46.00635" lon="6.5155">
        <ele>1242.16</ele>
        <time>2019-01-15T12:31:19Z</time>
      </trkpt>
      <trkpt lat="46.00633" lon="6.51549">
        <ele>1242.16</ele>
        <time>2019-01-15T12:31:20Z</time>
      </trkpt>
      <trkpt lat="46.00633" lon="6.51547">
        <ele>1242.64</ele>
        <time>2019-01-15T12:31:21Z</time>
      </trkpt>
      <trkpt lat="46.00632" lon="6.51545">
        <ele>1242.64</ele>
        <time>2019-01-15T12:31:22Z</time>
      </trkpt>
      <trkpt lat="46.00631" lon="6.51544">
        <ele>1242.64</ele>
        <time>2019-01-15T12:31:23Z</time>
      </trkpt>
      <trkpt lat="46.0063" lon="6.51543">
        <ele>1243.12</ele>
        <time>2019-01-15T12:31:24Z</time>
      </trkpt>
      <trkpt lat="46.0063" lon="6.51542">
        <ele>1243.12</ele>
        <time>2019-01-15T12:31:25Z</time>
      </trkpt>
      <trkpt lat="46.00629" lon="6.51541">
        <ele>1243.6</ele>
        <time>2019-01-15T12:31:26Z</time>
      </trkpt>
      <trkpt lat="46.00616" lon="6.51535">
        <ele>1246.01</ele>
        <time>2019-01-15T12:31:40Z</time>
      </trkpt>
      <trkpt lat="46.00614" lon="6.51535">
        <ele>1246.49</ele>
        <time>2019-01-15T12:31:41Z</time>
      </trkpt>
      <trkpt lat="46.00614" lon="6.51535">
        <ele>1246.97</ele>
        <time>2019-01-15T12:31:42Z</time>
      </trkpt>
      <trkpt lat="46.00612" lon="6.51534">
        <ele>1246.97</ele>
        <time>2019-01-15T12:31:43Z</time>
      </trkpt>
      <trkpt lat="46.00611" lon="6.51534">
        <ele>1246.97</ele>
        <time>2019-01-15T12:31:44Z</time>
      </trkpt>
      <trkpt lat="46.00611" lon="6.51533">
        <ele>1247.45</ele>
        <time>2019-01-15T12:31:45Z</time>
      </trkpt>
      <trkpt lat="46.00609" lon="6.51532">
        <ele>1247.45</ele>
        <time>2019-01-15T12:31:46Z</time>
      </trkpt>
      <trkpt lat="46.00606" lon="6.51526">
        <ele>1248.41</ele>
        <time>2019-01-15T12:31:51Z</time>
      </trkpt>
      <trkpt lat="46.00605" lon="6.51525">
        <ele>1248.41</ele>
        <time>2019-01-15T12:31:52Z</time>
      </trkpt>
      <trkpt lat="46.00604" lon="6.51524">
        <ele>1248.89</ele>
        <time>2019-01-15T12:31:53Z</time>
      </trkpt>
      <trkpt lat="46.00604" lon="6.51522">
        <ele>1248.89</ele>
        <time>2019-01-15T12:31:54Z</time>
      </trkpt>
      <trkpt lat="46.00604" lon="6.51521">
        <ele>1249.37</ele>
        <time>2019-01-15T12:31:55Z</time>
      </trkpt>
      <trkpt lat="46.00603" lon="6.5152">
        <ele>1249.37</ele>
        <time>2019-01-15T12:31:56Z</time>
      </trkpt>
      <trkpt lat="46.00603" lon="6.51518">
        <ele>1249.37</ele>
        <time>2019-01-15T12:31:57Z</time>
      </trkpt>
      <trkpt lat="46.00604" lon="6.51517">
        <ele>1249.85</ele>
        <time>2019-01-15T12:31:58Z</time>
      </trkpt>
      <trkpt lat="46.00603" lon="6.51516">
        <ele>1250.33</ele>
        <time>2019-01-15T12:31:59Z</time>
      </trkpt>
      <trkpt lat="46.00603" lon="6.51514">
        <ele>1250.33</ele>
        <time>2019-01-15T12:32:00Z</time>
      </trkpt>
      <trkpt lat="46.00603" lon="6.51513">
        <ele>1250.81</ele>
        <time>2019-01-15T12:32:01Z</time>
      </trkpt>
      <trkpt lat="46.00604" lon="6.51511">
        <ele>1250.81</ele>
        <time>2019-01-15T12:32:02Z</time>
      </trkpt>
      <trkpt lat="46.00619" lon="6.51494">
        <ele>1254.18</ele>
        <time>2019-01-15T12:32:22Z</time>
      </trkpt>
      <trkpt lat="46.00636" lon="6.51478">
        <ele>1257.06</ele>
        <time>2019-01-15T12:32:40Z</time>
      </trkpt>
      <trkpt lat="46.00651" lon="6.51472">
        <ele>1260.43</ele>
        <time>2019-01-15T12:32:55Z</time>
      </trkpt>
      <trkpt lat="46.00668" lon="6.5147">
        <ele>1263.31</ele>
        <time>2019-01-15T12:33:12Z</time>
      </trkpt>
      <trkpt lat="46.0068" lon="6.51463">
        <ele>1266.19</ele>
        <time>2019-01-15T12:33:26Z</time>
      </trkpt>
      <trkpt lat="46.00712" lon="6.51457">
        <ele>1268.12</ele>
        <time>2019-01-15T12:33:53Z</time>
      </trkpt>
      <trkpt lat="46.00714" lon="6.51458">
        <ele>1268.6</ele>
        <time>2019-01-15T12:33:55Z</time>
      </trkpt>
      <trkpt lat="46.00716" lon="6.51458">
        <ele>1268.6</ele>
        <time>2019-01-15T12:33:56Z</time>
      </trkpt>
      <trkpt lat="46.00717" lon="6.51458">
        <ele>1268.6</ele>
        <time>2019-01-15T12:33:57Z</time>
      </trkpt>
      <trkpt lat="46.0072" lon="6.51457">
        <ele>1269.56</ele>
        <time>2019-01-15T12:34:00Z</time>
      </trkpt>
      <trkpt lat="46.00722" lon="6.51457">
        <ele>1269.56</ele>
        <time>2019-01-15T12:34:01Z</time>
      </trkpt>
      <trkpt lat="46.00723" lon="6.51458">
        <ele>1270.04</ele>
        <time>2019-01-15T12:34:02Z</time>
      </trkpt>
      <trkpt lat="46.00727" lon="6.51459">
        <ele>1270.04</ele>
        <time>2019-01-15T12:34:04Z</time>
      </trkpt>
      <trkpt lat="46.00728" lon="6.51459">
        <ele>1270.04</ele>
        <time>2019-01-15T12:34:05Z</time>
      </trkpt>
      <trkpt lat="46.00773" lon="6.51486">
        <ele>1272.44</ele>
        <time>2019-01-15T12:34:41Z</time>
      </trkpt>
      <trkpt lat="46.00774" lon="6.51487">
        <ele>1272.44</ele>
        <time>2019-01-15T12:34:42Z</time>
      </trkpt>
      <trkpt lat="46.00776" lon="6.51488">
        <ele>1272.44</ele>
        <time>2019-01-15T12:34:43Z</time>
      </trkpt>
      <trkpt lat="46.00777" lon="6.51489">
        <ele>1272.44</ele>
        <time>2019-01-15T12:34:44Z</time>
      </trkpt>
      <trkpt lat="46.00778" lon="6.5149">
        <ele>1272.44</ele>
        <time>2019-01-15T12:34:45Z</time>
      </trkpt>
      <trkpt lat="46.00779" lon="6.51491">
        <ele>1272.44</ele>
        <time>2019-01-15T12:34:46Z</time>
      </trkpt>
      <trkpt lat="46.0078" lon="6.51493">
        <ele>1272.92</ele>
        <time>2019-01-15T12:34:47Z</time>
      </trkpt>
      <trkpt lat="46.00781" lon="6.51494">
        <ele>1272.92</ele>
        <time>2019-01-15T12:34:48Z</time>
      </trkpt>
      <trkpt lat="46.00782" lon="6.51495">
        <ele>1272.92</ele>
        <time>2019-01-15T12:34:49Z</time>
      </trkpt>
      <trkpt lat="46.00795" lon="6.51516">
        <ele>1276.29</ele>
        <time>2019-01-15T12:35:07Z</time>
      </trkpt>
      <trkpt lat="46.00805" lon="6.51533">
        <ele>1279.17</ele>
        <time>2019-01-15T12:35:23Z</time>
      </trkpt>
      <trkpt lat="46.00811" lon="6.51538">
        <ele>1280.61</ele>
        <time>2019-01-15T12:35:31Z</time>
      </trkpt>
      <trkpt lat="46.00826" lon="6.51523">
        <ele>1283.98</ele>
        <time>2019-01-15T12:35:49Z</time>
      </trkpt>
      <trkpt lat="46.00836" lon="6.51512">
        <ele>1287.34</ele>
        <time>2019-01-15T12:36:03Z</time>
      </trkpt>
      <trkpt lat="46.00846" lon="6.515">
        <ele>1290.71</ele>
        <time>2019-01-15T12:36:19Z</time>
      </trkpt>
      <trkpt lat="46.00856" lon="6.51495">
        <ele>1293.59</ele>
        <time>2019-01-15T12:36:33Z</time>
      </trkpt>
      <trkpt lat="46.00865" lon="6.5148">
        <ele>1296.48</ele>
        <time>2019-01-15T12:36:49Z</time>
      </trkpt>
      <trkpt lat="46.00869" lon="6.51457">
        <ele>1299.84</ele>
        <time>2019-01-15T12:37:07Z</time>
      </trkpt>
      <trkpt lat="46.00873" lon="6.51454">
        <ele>1300.32</ele>
        <time>2019-01-15T12:37:11Z</time>
      </trkpt>
      <trkpt lat="46.00883" lon="6.51456">
        <ele>1301.76</ele>
        <time>2019-01-15T12:37:21Z</time>
      </trkpt>
      <trkpt lat="46.00891" lon="6.51477">
        <ele>1305.13</ele>
        <time>2019-01-15T12:37:40Z</time>
      </trkpt>
      <trkpt lat="46.00888" lon="6.51489">
        <ele>1308.01</ele>
        <time>2019-01-15T12:37:53Z</time>
      </trkpt>
      <trkpt lat="46.00884" lon="6.51506">
        <ele>1311.38</ele>
        <time>2019-01-15T12:38:08Z</time>
      </trkpt>
      <trkpt lat="46.00884" lon="6.51528">
        <ele>1314.26</ele>
        <time>2019-01-15T12:38:26Z</time>
      </trkpt>
      <trkpt lat="46.00885" lon="6.51534">
        <ele>1315.22</ele>
        <time>2019-01-15T12:38:30Z</time>
      </trkpt>
      <trkpt lat="46.00885" lon="6.51537">
        <ele>1315.22</ele>
        <time>2019-01-15T12:38:32Z</time>
      </trkpt>
      <trkpt lat="46.00883" lon="6.51564">
        <ele>1318.59</ele>
        <time>2019-01-15T12:38:50Z</time>
      </trkpt>
      <trkpt lat="46.00872" lon="6.5158">
        <ele>1321.47</ele>
        <time>2019-01-15T12:39:07Z</time>
      </trkpt>
      <trkpt lat="46.00872" lon="6.51652">
        <ele>1321.47</ele>
        <time>2019-01-15T12:39:45Z</time>
      </trkpt>
      <trkpt lat="46.00873" lon="6.51666">
        <ele>1320.99</ele>
        <time>2019-01-15T12:39:51Z</time>
      </trkpt>
      <trkpt lat="46.0088" lon="6.51683">
        <ele>1320.99</ele>
        <time>2019-01-15T12:40:01Z</time>
      </trkpt>
      <trkpt lat="46.00881" lon="6.51684">
        <ele>1321.47</ele>
        <time>2019-01-15T12:40:02Z</time>
      </trkpt>
      <trkpt lat="46.00881" lon="6.51685">
        <ele>1321.47</ele>
        <time>2019-01-15T12:40:03Z</time>
      </trkpt>
      <trkpt lat="46.00883" lon="6.51687">
        <ele>1321.47</ele>
        <time>2019-01-15T12:40:04Z</time>
      </trkpt>
      <trkpt lat="46.00884" lon="6.51688">
        <ele>1320.99</ele>
        <time>2019-01-15T12:40:05Z</time>
      </trkpt>
      <trkpt lat="46.00885" lon="6.5169">
        <ele>1321.47</ele>
        <time>2019-01-15T12:40:06Z</time>
      </trkpt>
      <trkpt lat="46.00886" lon="6.51691">
        <ele>1321.47</ele>
        <time>2019-01-15T12:40:07Z</time>
      </trkpt>
      <trkpt lat="46.00887" lon="6.51692">
        <ele>1321.47</ele>
        <time>2019-01-15T12:40:08Z</time>
      </trkpt>
      <trkpt lat="46.00888" lon="6.51693">
        <ele>1321.47</ele>
        <time>2019-01-15T12:40:09Z</time>
      </trkpt>
      <trkpt lat="46.00889" lon="6.51694">
        <ele>1321.47</ele>
        <time>2019-01-15T12:40:10Z</time>
      </trkpt>
      <trkpt lat="46.0089" lon="6.51696">
        <ele>1320.99</ele>
        <time>2019-01-15T12:40:11Z</time>
      </trkpt>
      <trkpt lat="46.00891" lon="6.51697">
        <ele>1320.99</ele>
        <time>2019-01-15T12:40:12Z</time>
      </trkpt>
      <trkpt lat="46.00892" lon="6.51699">
        <ele>1320.99</ele>
        <time>2019-01-15T12:40:13Z</time>
      </trkpt>
      <trkpt lat="46.00893" lon="6.517">
        <ele>1320.99</ele>
        <time>2019-01-15T12:40:14Z</time>
      </trkpt>
      <trkpt lat="46.00895" lon="6.51702">
        <ele>1320.99</ele>
        <time>2019-01-15T12:40:15Z</time>
      </trkpt>
      <trkpt lat="46.00896" lon="6.51704">
        <ele>1320.99</ele>
        <time>2019-01-15T12:40:16Z</time>
      </trkpt>
      <trkpt lat="46.0093" lon="6.51756">
        <ele>1319.55</ele>
        <time>2019-01-15T12:40:48Z</time>
      </trkpt>
      <trkpt lat="46.00931" lon="6.51757">
        <ele>1319.55</ele>
        <time>2019-01-15T12:40:49Z</time>
      </trkpt>
      <trkpt lat="46.00937" lon="6.51761">
        <ele>1320.03</ele>
        <time>2019-01-15T12:40:55Z</time>
      </trkpt>
      <trkpt lat="46.00938" lon="6.51762">
        <ele>1320.03</ele>
        <time>2019-01-15T12:40:56Z</time>
      </trkpt>
      <trkpt lat="46.00939" lon="6.51763">
        <ele>1320.03</ele>
        <time>2019-01-15T12:40:57Z</time>
      </trkpt>
      <trkpt lat="46.00947" lon="6.51769">
        <ele>1320.51</ele>
        <time>2019-01-15T12:41:06Z</time>
      </trkpt>
      <trkpt lat="46.00948" lon="6.5177">
        <ele>1320.51</ele>
        <time>2019-01-15T12:41:07Z</time>
      </trkpt>
      <trkpt lat="46.00968" lon="6.51783">
        <ele>1322.43</ele>
        <time>2019-01-15T12:41:27Z</time>
      </trkpt>
      <trkpt lat="46.00968" lon="6.51784">
        <ele>1322.43</ele>
        <time>2019-01-15T12:41:28Z</time>
      </trkpt>
      <trkpt lat="46.00969" lon="6.51785">
        <ele>1322.43</ele>
        <time>2019-01-15T12:41:29Z</time>
      </trkpt>
      <trkpt lat="46.01001" lon="6.51809">
        <ele>1325.31</ele>
        <time>2019-01-15T12:42:02Z</time>
      </trkpt>
      <trkpt lat="46.01009" lon="6.51814">
        <ele>1325.8</ele>
        <time>2019-01-15T12:42:10Z</time>
      </trkpt>
      <trkpt lat="46.01011" lon="6.51814">
        <ele>1325.8</ele>
        <time>2019-01-15T12:42:11Z</time>
      </trkpt>
      <trkpt lat="46.01021" lon="6.51822">
        <ele>1326.28</ele>
        <time>2019-01-15T12:42:20Z</time>
      </trkpt>
      <trkpt lat="46.01026" lon="6.51824">
        <ele>1326.28</ele>
        <time>2019-01-15T12:42:24Z</time>
      </trkpt>
      <trkpt lat="46.01027" lon="6.51825">
        <ele>1326.28</ele>
        <time>2019-01-15T12:42:25Z</time>
      </trkpt>
      <trkpt lat="46.0103" lon="6.51827">
        <ele>1326.28</ele>
        <time>2019-01-15T12:42:27Z</time>
      </trkpt>
      <trkpt lat="46.01031" lon="6.51828">
        <ele>1326.76</ele>
        <time>2019-01-15T12:42:29Z</time>
      </trkpt>
      <trkpt lat="46.01032" lon="6.5183">
        <ele>1326.76</ele>
        <time>2019-01-15T12:42:30Z</time>
      </trkpt>
      <trkpt lat="46.01065" lon="6.5187">
        <ele>1327.24</ele>
        <time>2019-01-15T12:43:06Z</time>
      </trkpt>
      <trkpt lat="46.01065" lon="6.51871">
        <ele>1327.24</ele>
        <time>2019-01-15T12:43:07Z</time>
      </trkpt>
      <trkpt lat="46.01073" lon="6.51882">
        <ele>1327.72</ele>
        <time>2019-01-15T12:43:17Z</time>
      </trkpt>
      <trkpt lat="46.01074" lon="6.51885">
        <ele>1328.2</ele>
        <time>2019-01-15T12:43:23Z</time>
      </trkpt>
      <trkpt lat="46.01075" lon="6.51887">
        <ele>1328.2</ele>
        <time>2019-01-15T12:43:25Z</time>
      </trkpt>
      <trkpt lat="46.01081" lon="6.51899">
        <ele>1329.16</ele>
        <time>2019-01-15T12:43:34Z</time>
      </trkpt>
      <trkpt lat="46.01083" lon="6.519">
        <ele>1329.16</ele>
        <time>2019-01-15T12:43:35Z</time>
      </trkpt>
      <trkpt lat="46.01084" lon="6.51901">
        <ele>1329.16</ele>
        <time>2019-01-15T12:43:36Z</time>
      </trkpt>
      <trkpt lat="46.01085" lon="6.51902">
        <ele>1329.16</ele>
        <time>2019-01-15T12:43:37Z</time>
      </trkpt>
      <trkpt lat="46.01086" lon="6.51903">
        <ele>1329.16</ele>
        <time>2019-01-15T12:43:38Z</time>
      </trkpt>
      <trkpt lat="46.01086" lon="6.51905">
        <ele>1329.16</ele>
        <time>2019-01-15T12:43:39Z</time>
      </trkpt>
      <trkpt lat="46.01087" lon="6.51906">
        <ele>1329.16</ele>
        <time>2019-01-15T12:43:40Z</time>
      </trkpt>
      <trkpt lat="46.01093" lon="6.51913">
        <ele>1329.64</ele>
        <time>2019-01-15T12:43:46Z</time>
      </trkpt>
      <trkpt lat="46.01094" lon="6.51914">
        <ele>1329.64</ele>
        <time>2019-01-15T12:43:47Z</time>
      </trkpt>
      <trkpt lat="46.01095" lon="6.51915">
        <ele>1329.64</ele>
        <time>2019-01-15T12:43:48Z</time>
      </trkpt>
      <trkpt lat="46.01099" lon="6.51917">
        <ele>1330.12</ele>
        <time>2019-01-15T12:43:51Z</time>
      </trkpt>
      <trkpt lat="46.011" lon="6.51918">
        <ele>1330.12</ele>
        <time>2019-01-15T12:43:52Z</time>
      </trkpt>
      <trkpt lat="46.01101" lon="6.51919">
        <ele>1330.12</ele>
        <time>2019-01-15T12:43:53Z</time>
      </trkpt>
      <trkpt lat="46.01102" lon="6.5192">
        <ele>1330.12</ele>
        <time>2019-01-15T12:43:54Z</time>
      </trkpt>
      <trkpt lat="46.01103" lon="6.51921">
        <ele>1330.12</ele>
        <time>2019-01-15T12:43:55Z</time>
      </trkpt>
      <trkpt lat="46.01104" lon="6.51922">
        <ele>1330.6</ele>
        <time>2019-01-15T12:43:56Z</time>
      </trkpt>
      <trkpt lat="46.01105" lon="6.51924">
        <ele>1330.6</ele>
        <time>2019-01-15T12:43:58Z</time>
      </trkpt>
      <trkpt lat="46.01106" lon="6.51925">
        <ele>1330.6</ele>
        <time>2019-01-15T12:43:59Z</time>
      </trkpt>
      <trkpt lat="46.01107" lon="6.51926">
        <ele>1330.6</ele>
        <time>2019-01-15T12:44:00Z</time>
      </trkpt>
      <trkpt lat="46.01108" lon="6.51927">
        <ele>1330.6</ele>
        <time>2019-01-15T12:44:01Z</time>
      </trkpt>
      <trkpt lat="46.0111" lon="6.51927">
        <ele>1330.6</ele>
        <time>2019-01-15T12:44:02Z</time>
      </trkpt>
      <trkpt lat="46.01111" lon="6.51928">
        <ele>1331.08</ele>
        <time>2019-01-15T12:44:03Z</time>
      </trkpt>
      <trkpt lat="46.01112" lon="6.51928">
        <ele>1331.08</ele>
        <time>2019-01-15T12:44:04Z</time>
      </trkpt>
      <trkpt lat="46.01113" lon="6.51929">
        <ele>1331.08</ele>
        <time>2019-01-15T12:44:05Z</time>
      </trkpt>
      <trkpt lat="46.01115" lon="6.5193">
        <ele>1331.56</ele>
        <time>2019-01-15T12:44:06Z</time>
      </trkpt>
      <trkpt lat="46.01129" lon="6.51938">
        <ele>1332.52</ele>
        <time>2019-01-15T12:44:27Z</time>
      </trkpt>
      <trkpt lat="46.0113" lon="6.51939">
        <ele>1332.52</ele>
        <time>2019-01-15T12:44:28Z</time>
      </trkpt>
      <trkpt lat="46.01131" lon="6.51939">
        <ele>1333.01</ele>
        <time>2019-01-15T12:44:29Z</time>
      </trkpt>
      <trkpt lat="46.01132" lon="6.5194">
        <ele>1333.01</ele>
        <time>2019-01-15T12:44:30Z</time>
      </trkpt>
      <trkpt lat="46.01134" lon="6.51942">
        <ele>1333.01</ele>
        <time>2019-01-15T12:44:33Z</time>
      </trkpt>
      <trkpt lat="46.01135" lon="6.51944">
        <ele>1333.01</ele>
        <time>2019-01-15T12:44:35Z</time>
      </trkpt>
      <trkpt lat="46.01136" lon="6.51945">
        <ele>1333.01</ele>
        <time>2019-01-15T12:44:36Z</time>
      </trkpt>
      <trkpt lat="46.01137" lon="6.51945">
        <ele>1333.01</ele>
        <time>2019-01-15T12:44:37Z</time>
      </trkpt>
      <trkpt lat="46.01138" lon="6.51945">
        <ele>1333.01</ele>
        <time>2019-01-15T12:44:38Z</time>
      </trkpt>
      <trkpt lat="46.01139" lon="6.51946">
        <ele>1333.01</ele>
        <time>2019-01-15T12:44:39Z</time>
      </trkpt>
      <trkpt lat="46.01141" lon="6.51949">
        <ele>1333.49</ele>
        <time>2019-01-15T12:44:43Z</time>
      </trkpt>
      <trkpt lat="46.01142" lon="6.5195">
        <ele>1333.49</ele>
        <time>2019-01-15T12:44:44Z</time>
      </trkpt>
      <trkpt lat="46.01143" lon="6.51951">
        <ele>1333.49</ele>
        <time>2019-01-15T12:44:45Z</time>
      </trkpt>
      <trkpt lat="46.01144" lon="6.51951">
        <ele>1333.97</ele>
        <time>2019-01-15T12:44:46Z</time>
      </trkpt>
      <trkpt lat="46.01145" lon="6.51951">
        <ele>1333.97</ele>
        <time>2019-01-15T12:44:47Z</time>
      </trkpt>
      <trkpt lat="46.01146" lon="6.51952">
        <ele>1333.97</ele>
        <time>2019-01-15T12:44:48Z</time>
      </trkpt>
      <trkpt lat="46.0116" lon="6.51961">
        <ele>1335.41</ele>
        <time>2019-01-15T12:45:01Z</time>
      </trkpt>
      <trkpt lat="46.01161" lon="6.51962">
        <ele>1335.41</ele>
        <time>2019-01-15T12:45:02Z</time>
      </trkpt>
      <trkpt lat="46.01163" lon="6.51962">
        <ele>1335.41</ele>
        <time>2019-01-15T12:45:03Z</time>
      </trkpt>
      <trkpt lat="46.01164" lon="6.51963">
        <ele>1335.89</ele>
        <time>2019-01-15T12:45:04Z</time>
      </trkpt>
      <trkpt lat="46.01164" lon="6.51964">
        <ele>1335.89</ele>
        <time>2019-01-15T12:45:05Z</time>
      </trkpt>
      <trkpt lat="46.0117" lon="6.51971">
        <ele>1337.33</ele>
        <time>2019-01-15T12:45:13Z</time>
      </trkpt>
      <trkpt lat="46.01171" lon="6.51973">
        <ele>1337.33</ele>
        <time>2019-01-15T12:45:15Z</time>
      </trkpt>
      <trkpt lat="46.01173" lon="6.51977">
        <ele>1338.29</ele>
        <time>2019-01-15T12:45:19Z</time>
      </trkpt>
      <trkpt lat="46.01174" lon="6.51978">
        <ele>1338.29</ele>
        <time>2019-01-15T12:45:20Z</time>
      </trkpt>
      <trkpt lat="46.01175" lon="6.51979">
        <ele>1338.77</ele>
        <time>2019-01-15T12:45:21Z</time>
      </trkpt>
      <trkpt lat="46.01175" lon="6.5198">
        <ele>1338.77</ele>
        <time>2019-01-15T12:45:22Z</time>
      </trkpt>
      <trkpt lat="46.01176" lon="6.51981">
        <ele>1339.25</ele>
        <time>2019-01-15T12:45:24Z</time>
      </trkpt>
      <trkpt lat="46.0118" lon="6.51984">
        <ele>1340.22</ele>
        <time>2019-01-15T12:45:29Z</time>
      </trkpt>
      <trkpt lat="46.01183" lon="6.51987">
        <ele>1341.18</ele>
        <time>2019-01-15T12:45:33Z</time>
      </trkpt>
      <trkpt lat="46.01185" lon="6.51989">
        <ele>1342.14</ele>
        <time>2019-01-15T12:45:38Z</time>
      </trkpt>
      <trkpt lat="46.01192" lon="6.52002">
        <ele>1345.5</ele>
        <time>2019-01-15T12:45:55Z</time>
      </trkpt>
      <trkpt lat="46.01193" lon="6.52003">
        <ele>1345.5</ele>
        <time>2019-01-15T12:45:56Z</time>
      </trkpt>
      <trkpt lat="46.01202" lon="6.52012">
        <ele>1348.39</ele>
        <time>2019-01-15T12:46:13Z</time>
      </trkpt>
      <trkpt lat="46.01215" lon="6.52023">
        <ele>1351.75</ele>
        <time>2019-01-15T12:46:31Z</time>
      </trkpt>
      <trkpt lat="46.0122" lon="6.52037">
        <ele>1354.63</ele>
        <time>2019-01-15T12:46:47Z</time>
      </trkpt>
      <trkpt lat="46.01222" lon="6.52039">
        <ele>1354.63</ele>
        <time>2019-01-15T12:46:49Z</time>
      </trkpt>
      <trkpt lat="46.01234" lon="6.52051">
        <ele>1357.52</ele>
        <time>2019-01-15T12:47:08Z</time>
      </trkpt>
      <trkpt lat="46.01236" lon="6.52053">
        <ele>1358</ele>
        <time>2019-01-15T12:47:11Z</time>
      </trkpt>
      <trkpt lat="46.01237" lon="6.52055">
        <ele>1358.48</ele>
        <time>2019-01-15T12:47:13Z</time>
      </trkpt>
      <trkpt lat="46.01245" lon="6.52058">
        <ele>1360.88</ele>
        <time>2019-01-15T12:47:25Z</time>
      </trkpt>
      <trkpt lat="46.01255" lon="6.52065">
        <ele>1363.77</ele>
        <time>2019-01-15T12:47:43Z</time>
      </trkpt>
      <trkpt lat="46.01265" lon="6.52078">
        <ele>1367.13</ele>
        <time>2019-01-15T12:48:01Z</time>
      </trkpt>
      <trkpt lat="46.01277" lon="6.5209">
        <ele>1370.5</ele>
        <time>2019-01-15T12:48:21Z</time>
      </trkpt>
      <trkpt lat="46.01289" lon="6.52105">
        <ele>1373.38</ele>
        <time>2019-01-15T12:48:44Z</time>
      </trkpt>
      <trkpt lat="46.01296" lon="6.52113">
        <ele>1375.78</ele>
        <time>2019-01-15T12:48:56Z</time>
      </trkpt>
      <trkpt lat="46.0131" lon="6.52116">
        <ele>1377.71</ele>
        <time>2019-01-15T12:49:10Z</time>
      </trkpt>
      <trkpt lat="46.01311" lon="6.52116">
        <ele>1377.71</ele>
        <time>2019-01-15T12:49:11Z</time>
      </trkpt>
      <trkpt lat="46.01311" lon="6.52117">
        <ele>1377.71</ele>
        <time>2019-01-15T12:49:12Z</time>
      </trkpt>
      <trkpt lat="46.01313" lon="6.52118">
        <ele>1378.19</ele>
        <time>2019-01-15T12:49:14Z</time>
      </trkpt>
      <trkpt lat="46.01314" lon="6.5212">
        <ele>1378.19</ele>
        <time>2019-01-15T12:49:16Z</time>
      </trkpt>
      <trkpt lat="46.01316" lon="6.5212">
        <ele>1378.19</ele>
        <time>2019-01-15T12:49:18Z</time>
      </trkpt>
      <trkpt lat="46.01317" lon="6.52121">
        <ele>1378.19</ele>
        <time>2019-01-15T12:49:19Z</time>
      </trkpt>
      <trkpt lat="46.01318" lon="6.52121">
        <ele>1378.19</ele>
        <time>2019-01-15T12:49:20Z</time>
      </trkpt>
      <trkpt lat="46.01322" lon="6.52123">
        <ele>1379.15</ele>
        <time>2019-01-15T12:49:24Z</time>
      </trkpt>
      <trkpt lat="46.01323" lon="6.52124">
        <ele>1379.63</ele>
        <time>2019-01-15T12:49:25Z</time>
      </trkpt>
      <trkpt lat="46.01323" lon="6.52126">
        <ele>1379.63</ele>
        <time>2019-01-15T12:49:26Z</time>
      </trkpt>
      <trkpt lat="46.01324" lon="6.52128">
        <ele>1379.63</ele>
        <time>2019-01-15T12:49:28Z</time>
      </trkpt>
      <trkpt lat="46.01326" lon="6.52132">
        <ele>1379.63</ele>
        <time>2019-01-15T12:49:31Z</time>
      </trkpt>
      <trkpt lat="46.01326" lon="6.52134">
        <ele>1379.63</ele>
        <time>2019-01-15T12:49:33Z</time>
      </trkpt>
      <trkpt lat="46.01329" lon="6.5214">
        <ele>1381.55</ele>
        <time>2019-01-15T12:49:43Z</time>
      </trkpt>
      <trkpt lat="46.01332" lon="6.52141">
        <ele>1382.03</ele>
        <time>2019-01-15T12:49:45Z</time>
      </trkpt>
      <trkpt lat="46.01343" lon="6.52144">
        <ele>1383.47</ele>
        <time>2019-01-15T12:49:55Z</time>
      </trkpt>
      <trkpt lat="46.01344" lon="6.52146">
        <ele>1383.96</ele>
        <time>2019-01-15T12:49:57Z</time>
      </trkpt>
      <trkpt lat="46.01346" lon="6.52148">
        <ele>1384.44</ele>
        <time>2019-01-15T12:50:00Z</time>
      </trkpt>
      <trkpt lat="46.0135" lon="6.52156">
        <ele>1385.4</ele>
        <time>2019-01-15T12:50:07Z</time>
      </trkpt>
      <trkpt lat="46.01351" lon="6.52169">
        <ele>1388.28</ele>
        <time>2019-01-15T12:50:20Z</time>
      </trkpt>
      <trkpt lat="46.01352" lon="6.52171">
        <ele>1388.28</ele>
        <time>2019-01-15T12:50:21Z</time>
      </trkpt>
      <trkpt lat="46.01354" lon="6.52176">
        <ele>1389.72</ele>
        <time>2019-01-15T12:50:29Z</time>
      </trkpt>
      <trkpt lat="46.01356" lon="6.52177">
        <ele>1390.2</ele>
        <time>2019-01-15T12:50:31Z</time>
      </trkpt>
      <trkpt lat="46.01357" lon="6.5218">
        <ele>1391.17</ele>
        <time>2019-01-15T12:50:35Z</time>
      </trkpt>
      <trkpt lat="46.01366" lon="6.52186">
        <ele>1393.09</ele>
        <time>2019-01-15T12:50:47Z</time>
      </trkpt>
      <trkpt lat="46.01375" lon="6.52193">
        <ele>1396.45</ele>
        <time>2019-01-15T12:51:03Z</time>
      </trkpt>
      <trkpt lat="46.01387" lon="6.52198">
        <ele>1399.82</ele>
        <time>2019-01-15T12:51:21Z</time>
      </trkpt>
      <trkpt lat="46.01397" lon="6.52207">
        <ele>1402.7</ele>
        <time>2019-01-15T12:51:38Z</time>
      </trkpt>
      <trkpt lat="46.01407" lon="6.52213">
        <ele>1405.58</ele>
        <time>2019-01-15T12:51:54Z</time>
      </trkpt>
      <trkpt lat="46.01415" lon="6.52221">
        <ele>1408.95</ele>
        <time>2019-01-15T12:52:10Z</time>
      </trkpt>
      <trkpt lat="46.01424" lon="6.52228">
        <ele>1411.35</ele>
        <time>2019-01-15T12:52:23Z</time>
      </trkpt>
      <trkpt lat="46.01432" lon="6.52238">
        <ele>1414.24</ele>
        <time>2019-01-15T12:52:37Z</time>
      </trkpt>
      <trkpt lat="46.01438" lon="6.52245">
        <ele>1417.6</ele>
        <time>2019-01-15T12:52:52Z</time>
      </trkpt>
      <trkpt lat="46.01447" lon="6.52245">
        <ele>1419.52</ele>
        <time>2019-01-15T12:53:02Z</time>
      </trkpt>
      <trkpt lat="46.01455" lon="6.5225">
        <ele>1422.89</ele>
        <time>2019-01-15T12:53:17Z</time>
      </trkpt>
      <trkpt lat="46.01464" lon="6.52252">
        <ele>1425.77</ele>
        <time>2019-01-15T12:53:32Z</time>
      </trkpt>
      <trkpt lat="46.01473" lon="6.52259">
        <ele>1429.14</ele>
        <time>2019-01-15T12:53:49Z</time>
      </trkpt>
      <trkpt lat="46.01481" lon="6.52265">
        <ele>1432.02</ele>
        <time>2019-01-15T12:54:06Z</time>
      </trkpt>
      <trkpt lat="46.01488" lon="6.52267">
        <ele>1435.39</ele>
        <time>2019-01-15T12:54:20Z</time>
      </trkpt>
      <trkpt lat="46.015" lon="6.52265">
        <ele>1438.27</ele>
        <time>2019-01-15T12:54:35Z</time>
      </trkpt>
      <trkpt lat="46.01512" lon="6.52268">
        <ele>1441.63</ele>
        <time>2019-01-15T12:54:51Z</time>
      </trkpt>
      <trkpt lat="46.0152" lon="6.52272">
        <ele>1444.52</ele>
        <time>2019-01-15T12:55:06Z</time>
      </trkpt>
      <trkpt lat="46.01526" lon="6.52276">
        <ele>1446.92</ele>
        <time>2019-01-15T12:55:17Z</time>
      </trkpt>
      <trkpt lat="46.01533" lon="6.52283">
        <ele>1449.81</ele>
        <time>2019-01-15T12:55:32Z</time>
      </trkpt>
      <trkpt lat="46.01534" lon="6.52284">
        <ele>1450.29</ele>
        <time>2019-01-15T12:55:34Z</time>
      </trkpt>
      <trkpt lat="46.01549" lon="6.52281">
        <ele>1453.17</ele>
        <time>2019-01-15T12:55:56Z</time>
      </trkpt>
      <trkpt lat="46.01553" lon="6.52265">
        <ele>1456.53</ele>
        <time>2019-01-15T12:56:17Z</time>
      </trkpt>
      <trkpt lat="46.01554" lon="6.5226">
        <ele>1457.5</ele>
        <time>2019-01-15T12:56:22Z</time>
      </trkpt>
      <trkpt lat="46.01557" lon="6.52243">
        <ele>1460.38</ele>
        <time>2019-01-15T12:56:41Z</time>
      </trkpt>
      <trkpt lat="46.01558" lon="6.52238">
        <ele>1461.82</ele>
        <time>2019-01-15T12:56:47Z</time>
      </trkpt>
      <trkpt lat="46.01558" lon="6.52237">
        <ele>1461.82</ele>
        <time>2019-01-15T12:56:49Z</time>
      </trkpt>
      <trkpt lat="46.01563" lon="6.52227">
        <ele>1465.19</ele>
        <time>2019-01-15T12:57:05Z</time>
      </trkpt>
      <trkpt lat="46.01569" lon="6.52213">
        <ele>1468.07</ele>
        <time>2019-01-15T12:57:24Z</time>
      </trkpt>
      <trkpt lat="46.0158" lon="6.52205">
        <ele>1470.95</ele>
        <time>2019-01-15T12:57:41Z</time>
      </trkpt>
      <trkpt lat="46.01591" lon="6.52199">
        <ele>1474.32</ele>
        <time>2019-01-15T12:57:59Z</time>
      </trkpt>
      <trkpt lat="46.01586" lon="6.52189">
        <ele>1477.2</ele>
        <time>2019-01-15T12:58:17Z</time>
      </trkpt>
      <trkpt lat="46.01591" lon="6.5218">
        <ele>1479.61</ele>
        <time>2019-01-15T12:58:31Z</time>
      </trkpt>
      <trkpt lat="46.01597" lon="6.52164">
        <ele>1482.49</ele>
        <time>2019-01-15T12:58:51Z</time>
      </trkpt>
      <trkpt lat="46.01603" lon="6.52147">
        <ele>1484.89</ele>
        <time>2019-01-15T12:59:08Z</time>
      </trkpt>
      <trkpt lat="46.01604" lon="6.52144">
        <ele>1485.37</ele>
        <time>2019-01-15T12:59:10Z</time>
      </trkpt>
      <trkpt lat="46.01604" lon="6.52143">
        <ele>1485.37</ele>
        <time>2019-01-15T12:59:11Z</time>
      </trkpt>
      <trkpt lat="46.01604" lon="6.52142">
        <ele>1485.37</ele>
        <time>2019-01-15T12:59:12Z</time>
      </trkpt>
      <trkpt lat="46.01605" lon="6.52129">
        <ele>1488.74</ele>
        <time>2019-01-15T12:59:30Z</time>
      </trkpt>
      <trkpt lat="46.0161" lon="6.52119">
        <ele>1492.1</ele>
        <time>2019-01-15T12:59:46Z</time>
      </trkpt>
      <trkpt lat="46.01606" lon="6.52113">
        <ele>1494.51</ele>
        <time>2019-01-15T13:00:00Z</time>
      </trkpt>
      <trkpt lat="46.01602" lon="6.5211">
        <ele>1496.43</ele>
        <time>2019-01-15T13:00:09Z</time>
      </trkpt>
      <trkpt lat="46.01601" lon="6.52109">
        <ele>1496.91</ele>
        <time>2019-01-15T13:00:11Z</time>
      </trkpt>
      <trkpt lat="46.01601" lon="6.52106">
        <ele>1497.39</ele>
        <time>2019-01-15T13:00:31Z</time>
      </trkpt>
      <trkpt lat="46.01602" lon="6.52103">
        <ele>1497.39</ele>
        <time>2019-01-15T13:00:46Z</time>
      </trkpt>
      <trkpt lat="46.016" lon="6.52104">
        <ele>1497.39</ele>
        <time>2019-01-15T13:01:00Z</time>
      </trkpt>
      <trkpt lat="46.01601" lon="6.52104">
        <ele>1497.87</ele>
        <time>2019-01-15T13:01:09Z</time>
      </trkpt>
      <trkpt lat="46.01601" lon="6.52105">
        <ele>1497.87</ele>
        <time>2019-01-15T13:01:21Z</time>
      </trkpt>
      <trkpt lat="46.01599" lon="6.52106">
        <ele>1497.87</ele>
        <time>2019-01-15T13:01:36Z</time>
      </trkpt>
      <trkpt lat="46.01599" lon="6.52106">
        <ele>1497.39</ele>
        <time>2019-01-15T13:01:51Z</time>
      </trkpt>
      <trkpt lat="46.01599" lon="6.52107">
        <ele>1497.39</ele>
        <time>2019-01-15T13:01:59Z</time>
      </trkpt>
      <trkpt lat="46.016" lon="6.52105">
        <ele>1497.39</ele>
        <time>2019-01-15T13:02:02Z</time>
      </trkpt>
      <trkpt lat="46.016" lon="6.52104">
        <ele>1497.87</ele>
        <time>2019-01-15T13:02:07Z</time>
      </trkpt>
      <trkpt lat="46.01595" lon="6.52096">
        <ele>1498.83</ele>
        <time>2019-01-15T13:02:18Z</time>
      </trkpt>
      <trkpt lat="46.01587" lon="6.52091">
        <ele>1502.2</ele>
        <time>2019-01-15T13:02:33Z</time>
      </trkpt>
      <trkpt lat="46.0158" lon="6.5208">
        <ele>1505.08</ele>
        <time>2019-01-15T13:02:49Z</time>
      </trkpt>
      <trkpt lat="46.01583" lon="6.52064">
        <ele>1507.97</ele>
        <time>2019-01-15T13:03:06Z</time>
      </trkpt>
      <trkpt lat="46.01586" lon="6.5205">
        <ele>1511.33</ele>
        <time>2019-01-15T13:03:23Z</time>
      </trkpt>
      <trkpt lat="46.01589" lon="6.52042">
        <ele>1512.77</ele>
        <time>2019-01-15T13:03:33Z</time>
      </trkpt>
      <trkpt lat="46.0159" lon="6.5204">
        <ele>1513.25</ele>
        <time>2019-01-15T13:03:35Z</time>
      </trkpt>
      <trkpt lat="46.01593" lon="6.52026">
        <ele>1515.18</ele>
        <time>2019-01-15T13:03:48Z</time>
      </trkpt>
      <trkpt lat="46.01593" lon="6.52024">
        <ele>1515.66</ele>
        <time>2019-01-15T13:03:50Z</time>
      </trkpt>
      <trkpt lat="46.016" lon="6.52009">
        <ele>1518.54</ele>
        <time>2019-01-15T13:04:09Z</time>
      </trkpt>
      <trkpt lat="46.0161" lon="6.51993">
        <ele>1521.9</ele>
        <time>2019-01-15T13:04:29Z</time>
      </trkpt>
      <trkpt lat="46.01615" lon="6.51983">
        <ele>1523.83</ele>
        <time>2019-01-15T13:04:40Z</time>
      </trkpt>
      <trkpt lat="46.01616" lon="6.51968">
        <ele>1526.71</ele>
        <time>2019-01-15T13:04:57Z</time>
      </trkpt>
      <trkpt lat="46.01614" lon="6.51956">
        <ele>1530.08</ele>
        <time>2019-01-15T13:05:12Z</time>
      </trkpt>
      <trkpt lat="46.01616" lon="6.51944">
        <ele>1532.96</ele>
        <time>2019-01-15T13:05:30Z</time>
      </trkpt>
      <trkpt lat="46.01628" lon="6.51946">
        <ele>1536.32</ele>
        <time>2019-01-15T13:05:47Z</time>
      </trkpt>
      <trkpt lat="46.01636" lon="6.51945">
        <ele>1539.21</ele>
        <time>2019-01-15T13:06:04Z</time>
      </trkpt>
      <trkpt lat="46.01645" lon="6.5194">
        <ele>1542.57</ele>
        <time>2019-01-15T13:06:21Z</time>
      </trkpt>
      <trkpt lat="46.01646" lon="6.51924">
        <ele>1544.98</ele>
        <time>2019-01-15T13:06:36Z</time>
      </trkpt>
      <trkpt lat="46.01646" lon="6.51923">
        <ele>1545.46</ele>
        <time>2019-01-15T13:06:37Z</time>
      </trkpt>
      <trkpt lat="46.01646" lon="6.51922">
        <ele>1545.46</ele>
        <time>2019-01-15T13:06:38Z</time>
      </trkpt>
      <trkpt lat="46.01641" lon="6.51907">
        <ele>1548.82</ele>
        <time>2019-01-15T13:06:58Z</time>
      </trkpt>
      <trkpt lat="46.01637" lon="6.51887">
        <ele>1551.71</ele>
        <time>2019-01-15T13:07:23Z</time>
      </trkpt>
      <trkpt lat="46.01639" lon="6.51885">
        <ele>1552.19</ele>
        <time>2019-01-15T13:07:27Z</time>
      </trkpt>
      <trkpt lat="46.01649" lon="6.51881">
        <ele>1555.07</ele>
        <time>2019-01-15T13:07:45Z</time>
      </trkpt>
      <trkpt lat="46.01655" lon="6.5188">
        <ele>1556.99</ele>
        <time>2019-01-15T13:07:54Z</time>
      </trkpt>
      <trkpt lat="46.01654" lon="6.51872">
        <ele>1559.88</ele>
        <time>2019-01-15T13:08:14Z</time>
      </trkpt>
      <trkpt lat="46.0165" lon="6.5186">
        <ele>1562.76</ele>
        <time>2019-01-15T13:08:31Z</time>
      </trkpt>
      <trkpt lat="46.01659" lon="6.51856">
        <ele>1566.12</ele>
        <time>2019-01-15T13:08:47Z</time>
      </trkpt>
      <trkpt lat="46.01669" lon="6.5186">
        <ele>1569.01</ele>
        <time>2019-01-15T13:09:06Z</time>
      </trkpt>
      <trkpt lat="46.01678" lon="6.51873">
        <ele>1572.37</ele>
        <time>2019-01-15T13:09:23Z</time>
      </trkpt>
      <trkpt lat="46.01683" lon="6.51879">
        <ele>1573.82</ele>
        <time>2019-01-15T13:09:34Z</time>
      </trkpt>
      <trkpt lat="46.01682" lon="6.51884">
        <ele>1574.3</ele>
        <time>2019-01-15T13:09:36Z</time>
      </trkpt>
      <trkpt lat="46.01682" lon="6.5189">
        <ele>1575.26</ele>
        <time>2019-01-15T13:09:41Z</time>
      </trkpt>
      <trkpt lat="46.01689" lon="6.51893">
        <ele>1576.7</ele>
        <time>2019-01-15T13:09:51Z</time>
      </trkpt>
      <trkpt lat="46.01702" lon="6.519">
        <ele>1579.58</ele>
        <time>2019-01-15T13:10:11Z</time>
      </trkpt>
      <trkpt lat="46.01707" lon="6.51901">
        <ele>1582.95</ele>
        <time>2019-01-15T13:10:26Z</time>
      </trkpt>
      <trkpt lat="46.01716" lon="6.51905">
        <ele>1585.83</ele>
        <time>2019-01-15T13:10:41Z</time>
      </trkpt>
      <trkpt lat="46.01726" lon="6.51915">
        <ele>1588.72</ele>
        <time>2019-01-15T13:11:00Z</time>
      </trkpt>
      <trkpt lat="46.01728" lon="6.51925">
        <ele>1589.68</ele>
        <time>2019-01-15T13:11:09Z</time>
      </trkpt>
      <trkpt lat="46.01747" lon="6.51978">
        <ele>1593.04</ele>
        <time>2019-01-15T13:12:04Z</time>
      </trkpt>
      <trkpt lat="46.01765" lon="6.51999">
        <ele>1595.93</ele>
        <time>2019-01-15T13:12:35Z</time>
      </trkpt>
      <trkpt lat="46.01769" lon="6.52011">
        <ele>1598.81</ele>
        <time>2019-01-15T13:12:52Z</time>
      </trkpt>
      <trkpt lat="46.0178" lon="6.52014">
        <ele>1602.17</ele>
        <time>2019-01-15T13:13:09Z</time>
      </trkpt>
      <trkpt lat="46.01784" lon="6.52008">
        <ele>1605.54</ele>
        <time>2019-01-15T13:13:27Z</time>
      </trkpt>
      <trkpt lat="46.01788" lon="6.52">
        <ele>1608.42</ele>
        <time>2019-01-15T13:13:42Z</time>
      </trkpt>
      <trkpt lat="46.01795" lon="6.52003">
        <ele>1611.79</ele>
        <time>2019-01-15T13:13:58Z</time>
      </trkpt>
      <trkpt lat="46.01802" lon="6.52008">
        <ele>1615.15</ele>
        <time>2019-01-15T13:14:15Z</time>
      </trkpt>
      <trkpt lat="46.01808" lon="6.5202">
        <ele>1618.04</ele>
        <time>2019-01-15T13:14:31Z</time>
      </trkpt>
      <trkpt lat="46.01811" lon="6.5202">
        <ele>1620.92</ele>
        <time>2019-01-15T13:14:57Z</time>
      </trkpt>
      <trkpt lat="46.01811" lon="6.52003">
        <ele>1624.28</ele>
        <time>2019-01-15T13:15:17Z</time>
      </trkpt>
      <trkpt lat="46.01815" lon="6.51994">
        <ele>1627.17</ele>
        <time>2019-01-15T13:15:35Z</time>
      </trkpt>
      <trkpt lat="46.01822" lon="6.51991">
        <ele>1630.53</ele>
        <time>2019-01-15T13:16:01Z</time>
      </trkpt>
      <trkpt lat="46.01823" lon="6.51985">
        <ele>1633.9</ele>
        <time>2019-01-15T13:16:16Z</time>
      </trkpt>
      <trkpt lat="46.01825" lon="6.51979">
        <ele>1636.78</ele>
        <time>2019-01-15T13:16:31Z</time>
      </trkpt>
      <trkpt lat="46.01831" lon="6.5197">
        <ele>1638.22</ele>
        <time>2019-01-15T13:16:40Z</time>
      </trkpt>
      <trkpt lat="46.01836" lon="6.51956">
        <ele>1641.11</ele>
        <time>2019-01-15T13:16:59Z</time>
      </trkpt>
      <trkpt lat="46.01837" lon="6.51938">
        <ele>1644.47</ele>
        <time>2019-01-15T13:17:17Z</time>
      </trkpt>
      <trkpt lat="46.01835" lon="6.51928">
        <ele>1647.36</ele>
        <time>2019-01-15T13:17:32Z</time>
      </trkpt>
      <trkpt lat="46.01833" lon="6.51915">
        <ele>1650.24</ele>
        <time>2019-01-15T13:17:48Z</time>
      </trkpt>
      <trkpt lat="46.0183" lon="6.51904">
        <ele>1653.6</ele>
        <time>2019-01-15T13:18:10Z</time>
      </trkpt>
      <trkpt lat="46.0183" lon="6.51902">
        <ele>1653.6</ele>
        <time>2019-01-15T13:18:30Z</time>
      </trkpt>
      <trkpt lat="46.01831" lon="6.51902">
        <ele>1653.12</ele>
        <time>2019-01-15T13:19:13Z</time>
      </trkpt>
      <trkpt lat="46.01832" lon="6.51899">
        <ele>1653.12</ele>
        <time>2019-01-15T13:19:33Z</time>
      </trkpt>
      <trkpt lat="46.01831" lon="6.51897">
        <ele>1653.12</ele>
        <time>2019-01-15T13:19:54Z</time>
      </trkpt>
      <trkpt lat="46.01832" lon="6.51887">
        <ele>1656.01</ele>
        <time>2019-01-15T13:20:59Z</time>
      </trkpt>
      <trkpt lat="46.01836" lon="6.51875">
        <ele>1659.37</ele>
        <time>2019-01-15T13:21:17Z</time>
      </trkpt>
      <trkpt lat="46.01838" lon="6.51872">
        <ele>1659.37</ele>
        <time>2019-01-15T13:21:20Z</time>
      </trkpt>
      <trkpt lat="46.01844" lon="6.51862">
        <ele>1662.74</ele>
        <time>2019-01-15T13:21:36Z</time>
      </trkpt>
      <trkpt lat="46.01843" lon="6.5185">
        <ele>1665.62</ele>
        <time>2019-01-15T13:21:52Z</time>
      </trkpt>
      <trkpt lat="46.01851" lon="6.51833">
        <ele>1668.99</ele>
        <time>2019-01-15T13:22:11Z</time>
      </trkpt>
      <trkpt lat="46.01865" lon="6.51814">
        <ele>1671.87</ele>
        <time>2019-01-15T13:22:38Z</time>
      </trkpt>
      <trkpt lat="46.0187" lon="6.51801">
        <ele>1674.75</ele>
        <time>2019-01-15T13:22:55Z</time>
      </trkpt>
      <trkpt lat="46.01874" lon="6.5179">
        <ele>1678.12</ele>
        <time>2019-01-15T13:23:12Z</time>
      </trkpt>
      <trkpt lat="46.01876" lon="6.51783">
        <ele>1679.56</ele>
        <time>2019-01-15T13:23:21Z</time>
      </trkpt>
      <trkpt lat="46.01878" lon="6.5177">
        <ele>1682.93</ele>
        <time>2019-01-15T13:23:37Z</time>
      </trkpt>
      <trkpt lat="46.01881" lon="6.51764">
        <ele>1683.89</ele>
        <time>2019-01-15T13:23:45Z</time>
      </trkpt>
      <trkpt lat="46.01883" lon="6.51763">
        <ele>1684.37</ele>
        <time>2019-01-15T13:23:47Z</time>
      </trkpt>
      <trkpt lat="46.01903" lon="6.51752">
        <ele>1687.25</ele>
        <time>2019-01-15T13:24:15Z</time>
      </trkpt>
      <trkpt lat="46.01905" lon="6.51752">
        <ele>1688.21</ele>
        <time>2019-01-15T13:24:17Z</time>
      </trkpt>
      <trkpt lat="46.01906" lon="6.51752">
        <ele>1688.21</ele>
        <time>2019-01-15T13:24:19Z</time>
      </trkpt>
      <trkpt lat="46.01908" lon="6.51755">
        <ele>1689.17</ele>
        <time>2019-01-15T13:24:23Z</time>
      </trkpt>
      <trkpt lat="46.01912" lon="6.51772">
        <ele>1692.54</ele>
        <time>2019-01-15T13:24:44Z</time>
      </trkpt>
      <trkpt lat="46.01917" lon="6.51771">
        <ele>1693.98</ele>
        <time>2019-01-15T13:24:53Z</time>
      </trkpt>
      <trkpt lat="46.0192" lon="6.51766">
        <ele>1694.94</ele>
        <time>2019-01-15T13:25:00Z</time>
      </trkpt>
      <trkpt lat="46.01925" lon="6.51746">
        <ele>1698.31</ele>
        <time>2019-01-15T13:25:22Z</time>
      </trkpt>
      <trkpt lat="46.01927" lon="6.51731">
        <ele>1701.19</ele>
        <time>2019-01-15T13:25:42Z</time>
      </trkpt>
      <trkpt lat="46.01927" lon="6.51717">
        <ele>1704.07</ele>
        <time>2019-01-15T13:25:59Z</time>
      </trkpt>
      <trkpt lat="46.01928" lon="6.51704">
        <ele>1706.48</ele>
        <time>2019-01-15T13:26:12Z</time>
      </trkpt>
      <trkpt lat="46.01929" lon="6.51691">
        <ele>1709.36</ele>
        <time>2019-01-15T13:26:27Z</time>
      </trkpt>
      <trkpt lat="46.01929" lon="6.51682">
        <ele>1711.28</ele>
        <time>2019-01-15T13:26:35Z</time>
      </trkpt>
      <trkpt lat="46.01939" lon="6.5168">
        <ele>1714.17</ele>
        <time>2019-01-15T13:26:51Z</time>
      </trkpt>
      <trkpt lat="46.01943" lon="6.51682">
        <ele>1715.61</ele>
        <time>2019-01-15T13:26:59Z</time>
      </trkpt>
      <trkpt lat="46.01946" lon="6.51676">
        <ele>1718.97</ele>
        <time>2019-01-15T13:27:17Z</time>
      </trkpt>
      <trkpt lat="46.01944" lon="6.5166">
        <ele>1721.86</ele>
        <time>2019-01-15T13:27:37Z</time>
      </trkpt>
      <trkpt lat="46.01942" lon="6.51644">
        <ele>1724.74</ele>
        <time>2019-01-15T13:27:54Z</time>
      </trkpt>
      <trkpt lat="46.0194" lon="6.51627">
        <ele>1727.63</ele>
        <time>2019-01-15T13:28:13Z</time>
      </trkpt>
      <trkpt lat="46.0194" lon="6.51612">
        <ele>1730.99</ele>
        <time>2019-01-15T13:28:30Z</time>
      </trkpt>
      <trkpt lat="46.01939" lon="6.51597">
        <ele>1733.88</ele>
        <time>2019-01-15T13:28:48Z</time>
      </trkpt>
      <trkpt lat="46.01939" lon="6.51596">
        <ele>1734.36</ele>
        <time>2019-01-15T13:28:49Z</time>
      </trkpt>
      <trkpt lat="46.01938" lon="6.51583">
        <ele>1737.24</ele>
        <time>2019-01-15T13:29:02Z</time>
      </trkpt>
      <trkpt lat="46.01937" lon="6.5157">
        <ele>1740.6</ele>
        <time>2019-01-15T13:29:17Z</time>
      </trkpt>
      <trkpt lat="46.01936" lon="6.51557">
        <ele>1743.49</ele>
        <time>2019-01-15T13:29:33Z</time>
      </trkpt>
      <trkpt lat="46.01934" lon="6.51542">
        <ele>1746.37</ele>
        <time>2019-01-15T13:29:50Z</time>
      </trkpt>
      <trkpt lat="46.01942" lon="6.51544">
        <ele>1747.81</ele>
        <time>2019-01-15T13:30:00Z</time>
      </trkpt>
      <trkpt lat="46.01943" lon="6.51544">
        <ele>1748.29</ele>
        <time>2019-01-15T13:30:01Z</time>
      </trkpt>
      <trkpt lat="46.01944" lon="6.51545">
        <ele>1748.29</ele>
        <time>2019-01-15T13:30:02Z</time>
      </trkpt>
      <trkpt lat="46.01954" lon="6.51549">
        <ele>1750.7</ele>
        <time>2019-01-15T13:30:17Z</time>
      </trkpt>
      <trkpt lat="46.0196" lon="6.51552">
        <ele>1752.62</ele>
        <time>2019-01-15T13:30:26Z</time>
      </trkpt>
      <trkpt lat="46.01964" lon="6.51554">
        <ele>1753.58</ele>
        <time>2019-01-15T13:30:32Z</time>
      </trkpt>
      <trkpt lat="46.01977" lon="6.51557">
        <ele>1756.47</ele>
        <time>2019-01-15T13:30:51Z</time>
      </trkpt>
      <trkpt lat="46.01987" lon="6.51559">
        <ele>1759.83</ele>
        <time>2019-01-15T13:31:08Z</time>
      </trkpt>
      <trkpt lat="46.01981" lon="6.51545">
        <ele>1762.71</ele>
        <time>2019-01-15T13:31:26Z</time>
      </trkpt>
      <trkpt lat="46.01978" lon="6.5153">
        <ele>1766.08</ele>
        <time>2019-01-15T13:31:42Z</time>
      </trkpt>
      <trkpt lat="46.01976" lon="6.51516">
        <ele>1768.96</ele>
        <time>2019-01-15T13:31:58Z</time>
      </trkpt>
      <trkpt lat="46.01974" lon="6.51505">
        <ele>1772.33</ele>
        <time>2019-01-15T13:32:14Z</time>
      </trkpt>
      <trkpt lat="46.01976" lon="6.51505">
        <ele>1772.33</ele>
        <time>2019-01-15T13:32:15Z</time>
      </trkpt>
      <trkpt lat="46.0198" lon="6.51507">
        <ele>1773.29</ele>
        <time>2019-01-15T13:32:21Z</time>
      </trkpt>
      <trkpt lat="46.01982" lon="6.51509">
        <ele>1774.25</ele>
        <time>2019-01-15T13:32:26Z</time>
      </trkpt>
      <trkpt lat="46.01993" lon="6.51514">
        <ele>1777.61</ele>
        <time>2019-01-15T13:32:44Z</time>
      </trkpt>
      <trkpt lat="46.01997" lon="6.5151">
        <ele>1780.5</ele>
        <time>2019-01-15T13:33:01Z</time>
      </trkpt>
      <trkpt lat="46.01992" lon="6.51495">
        <ele>1783.38</ele>
        <time>2019-01-15T13:33:19Z</time>
      </trkpt>
      <trkpt lat="46.01989" lon="6.51481">
        <ele>1786.75</ele>
        <time>2019-01-15T13:33:34Z</time>
      </trkpt>
      <trkpt lat="46.01992" lon="6.51478">
        <ele>1789.15</ele>
        <time>2019-01-15T13:33:44Z</time>
      </trkpt>
      <trkpt lat="46.02002" lon="6.5148">
        <ele>1792.03</ele>
        <time>2019-01-15T13:34:02Z</time>
      </trkpt>
      <trkpt lat="46.02005" lon="6.5148">
        <ele>1792.52</ele>
        <time>2019-01-15T13:34:08Z</time>
      </trkpt>
      <trkpt lat="46.01999" lon="6.51463">
        <ele>1795.88</ele>
        <time>2019-01-15T13:34:27Z</time>
      </trkpt>
      <trkpt lat="46.01994" lon="6.51452">
        <ele>1798.76</ele>
        <time>2019-01-15T13:34:44Z</time>
      </trkpt>
      <trkpt lat="46.01992" lon="6.51441">
        <ele>1802.13</ele>
        <time>2019-01-15T13:35:00Z</time>
      </trkpt>
      <trkpt lat="46.01992" lon="6.51431">
        <ele>1805.01</ele>
        <time>2019-01-15T13:35:15Z</time>
      </trkpt>
      <trkpt lat="46.0199" lon="6.51416">
        <ele>1808.38</ele>
        <time>2019-01-15T13:35:33Z</time>
      </trkpt>
      <trkpt lat="46.01985" lon="6.51402">
        <ele>1811.26</ele>
        <time>2019-01-15T13:35:53Z</time>
      </trkpt>
      <trkpt lat="46.01981" lon="6.51388">
        <ele>1814.15</ele>
        <time>2019-01-15T13:36:09Z</time>
      </trkpt>
      <trkpt lat="46.01983" lon="6.51385">
        <ele>1814.63</ele>
        <time>2019-01-15T13:36:11Z</time>
      </trkpt>
      <trkpt lat="46.0198" lon="6.51385">
        <ele>1815.11</ele>
        <time>2019-01-15T13:37:32Z</time>
      </trkpt>
      <trkpt lat="46.0198" lon="6.51385">
        <ele>1815.59</ele>
        <time>2019-01-15T13:38:17Z</time>
      </trkpt>
      <trkpt lat="46.0198" lon="6.51387">
        <ele>1815.59</ele>
        <time>2019-01-15T13:38:42Z</time>
      </trkpt>
      <trkpt lat="46.0198" lon="6.51387">
        <ele>1815.59</ele>
        <time>2019-01-15T13:39:09Z</time>
      </trkpt>
      <trkpt lat="46.01978" lon="6.51388">
        <ele>1815.59</ele>
        <time>2019-01-15T13:40:00Z</time>
      </trkpt>
      <trkpt lat="46.01979" lon="6.51385">
        <ele>1815.59</ele>
        <time>2019-01-15T13:40:31Z</time>
      </trkpt>
      <trkpt lat="46.0198" lon="6.51385">
        <ele>1815.59</ele>
        <time>2019-01-15T13:40:58Z</time>
      </trkpt>
      <trkpt lat="46.01981" lon="6.51385">
        <ele>1815.11</ele>
        <time>2019-01-15T13:41:31Z</time>
      </trkpt>
      <trkpt lat="46.01982" lon="6.51387">
        <ele>1814.63</ele>
        <time>2019-01-15T13:42:01Z</time>
      </trkpt>
      <trkpt lat="46.01978" lon="6.51388">
        <ele>1815.11</ele>
        <time>2019-01-15T13:42:29Z</time>
      </trkpt>
      <trkpt lat="46.01978" lon="6.51387">
        <ele>1815.11</ele>
        <time>2019-01-15T13:42:50Z</time>
      </trkpt>
      <trkpt lat="46.01979" lon="6.51389">
        <ele>1815.11</ele>
        <time>2019-01-15T13:43:46Z</time>
      </trkpt>
      <trkpt lat="46.01977" lon="6.51389">
        <ele>1814.63</ele>
        <time>2019-01-15T13:44:56Z</time>
      </trkpt>
      <trkpt lat="46.01979" lon="6.51389">
        <ele>1814.63</ele>
        <time>2019-01-15T13:45:34Z</time>
      </trkpt>
      <trkpt lat="46.01978" lon="6.51389">
        <ele>1815.11</ele>
        <time>2019-01-15T13:45:58Z</time>
      </trkpt>
      <trkpt lat="46.01987" lon="6.5139">
        <ele>1816.55</ele>
        <time>2019-01-15T13:46:55Z</time>
      </trkpt>
      <trkpt lat="46.01988" lon="6.5139">
        <ele>1816.55</ele>
        <time>2019-01-15T13:46:56Z</time>
      </trkpt>
      <trkpt lat="46.01989" lon="6.5139">
        <ele>1817.03</ele>
        <time>2019-01-15T13:46:57Z</time>
      </trkpt>
      <trkpt lat="46.01991" lon="6.5139">
        <ele>1817.51</ele>
        <time>2019-01-15T13:47:00Z</time>
      </trkpt>
      <trkpt lat="46.01995" lon="6.51383">
        <ele>1820.39</ele>
        <time>2019-01-15T13:47:14Z</time>
      </trkpt>
      <trkpt lat="46.01987" lon="6.51361">
        <ele>1823.76</ele>
        <time>2019-01-15T13:47:36Z</time>
      </trkpt>
      <trkpt lat="46.01983" lon="6.51349">
        <ele>1826.64</ele>
        <time>2019-01-15T13:47:54Z</time>
      </trkpt>
      <trkpt lat="46.01975" lon="6.51335">
        <ele>1830.01</ele>
        <time>2019-01-15T13:48:13Z</time>
      </trkpt>
      <trkpt lat="46.01971" lon="6.51321">
        <ele>1832.89</ele>
        <time>2019-01-15T13:48:27Z</time>
      </trkpt>
      <trkpt lat="46.01965" lon="6.51306">
        <ele>1835.77</ele>
        <time>2019-01-15T13:48:41Z</time>
      </trkpt>
      <trkpt lat="46.01965" lon="6.51304">
        <ele>1836.26</ele>
        <time>2019-01-15T13:48:43Z</time>
      </trkpt>
      <trkpt lat="46.01965" lon="6.51303">
        <ele>1836.74</ele>
        <time>2019-01-15T13:48:44Z</time>
      </trkpt>
      <trkpt lat="46.01968" lon="6.513">
        <ele>1838.18</ele>
        <time>2019-01-15T13:48:52Z</time>
      </trkpt>
      <trkpt lat="46.0197" lon="6.513">
        <ele>1839.14</ele>
        <time>2019-01-15T13:48:54Z</time>
      </trkpt>
      <trkpt lat="46.0198" lon="6.51299">
        <ele>1842.02</ele>
        <time>2019-01-15T13:49:09Z</time>
      </trkpt>
      <trkpt lat="46.01993" lon="6.51297">
        <ele>1844.91</ele>
        <time>2019-01-15T13:49:26Z</time>
      </trkpt>
      <trkpt lat="46.02006" lon="6.51297">
        <ele>1848.27</ele>
        <time>2019-01-15T13:49:44Z</time>
      </trkpt>
      <trkpt lat="46.02008" lon="6.51297">
        <ele>1848.27</ele>
        <time>2019-01-15T13:49:46Z</time>
      </trkpt>
      <trkpt lat="46.02009" lon="6.51296">
        <ele>1848.75</ele>
        <time>2019-01-15T13:49:48Z</time>
      </trkpt>
      <trkpt lat="46.02008" lon="6.51293">
        <ele>1850.19</ele>
        <time>2019-01-15T13:49:56Z</time>
      </trkpt>
      <trkpt lat="46.02007" lon="6.51291">
        <ele>1851.16</ele>
        <time>2019-01-15T13:49:58Z</time>
      </trkpt>
      <trkpt lat="46.02005" lon="6.51288">
        <ele>1851.64</ele>
        <time>2019-01-15T13:50:01Z</time>
      </trkpt>
      <trkpt lat="46.01999" lon="6.51276">
        <ele>1855</ele>
        <time>2019-01-15T13:50:17Z</time>
      </trkpt>
      <trkpt lat="46.01997" lon="6.51265">
        <ele>1857.89</ele>
        <time>2019-01-15T13:50:30Z</time>
      </trkpt>
      <trkpt lat="46.01994" lon="6.51253">
        <ele>1860.77</ele>
        <time>2019-01-15T13:50:45Z</time>
      </trkpt>
      <trkpt lat="46.02" lon="6.51247">
        <ele>1863.65</ele>
        <time>2019-01-15T13:51:00Z</time>
      </trkpt>
      <trkpt lat="46.02002" lon="6.51247">
        <ele>1864.61</ele>
        <time>2019-01-15T13:51:03Z</time>
      </trkpt>
      <trkpt lat="46.02011" lon="6.51245">
        <ele>1867.5</ele>
        <time>2019-01-15T13:51:19Z</time>
      </trkpt>
      <trkpt lat="46.02016" lon="6.51242">
        <ele>1870.38</ele>
        <time>2019-01-15T13:51:34Z</time>
      </trkpt>
      <trkpt lat="46.02015" lon="6.51229">
        <ele>1873.75</ele>
        <time>2019-01-15T13:51:49Z</time>
      </trkpt>
      <trkpt lat="46.02016" lon="6.51225">
        <ele>1874.71</ele>
        <time>2019-01-15T13:51:53Z</time>
      </trkpt>
      <trkpt lat="46.02016" lon="6.51223">
        <ele>1875.19</ele>
        <time>2019-01-15T13:51:55Z</time>
      </trkpt>
      <trkpt lat="46.0202" lon="6.51211">
        <ele>1878.07</ele>
        <time>2019-01-15T13:52:11Z</time>
      </trkpt>
      <trkpt lat="46.02025" lon="6.51197">
        <ele>1881.44</ele>
        <time>2019-01-15T13:52:27Z</time>
      </trkpt>
      <trkpt lat="46.0203" lon="6.51185">
        <ele>1884.32</ele>
        <time>2019-01-15T13:52:41Z</time>
      </trkpt>
      <trkpt lat="46.02031" lon="6.51176">
        <ele>1885.76</ele>
        <time>2019-01-15T13:52:50Z</time>
      </trkpt>
      <trkpt lat="46.02032" lon="6.51174">
        <ele>1886.24</ele>
        <time>2019-01-15T13:52:52Z</time>
      </trkpt>
      <trkpt lat="46.02036" lon="6.51165">
        <ele>1888.17</ele>
        <time>2019-01-15T13:53:03Z</time>
      </trkpt>
      <trkpt lat="46.02038" lon="6.51166">
        <ele>1889.13</ele>
        <time>2019-01-15T13:53:06Z</time>
      </trkpt>
      <trkpt lat="46.02039" lon="6.51166">
        <ele>1889.13</ele>
        <time>2019-01-15T13:53:07Z</time>
      </trkpt>
      <trkpt lat="46.0204" lon="6.51166">
        <ele>1889.61</ele>
        <time>2019-01-15T13:53:08Z</time>
      </trkpt>
      <trkpt lat="46.02049" lon="6.51172">
        <ele>1892.49</ele>
        <time>2019-01-15T13:53:24Z</time>
      </trkpt>
      <trkpt lat="46.02052" lon="6.51167">
        <ele>1894.9</ele>
        <time>2019-01-15T13:53:34Z</time>
      </trkpt>
      <trkpt lat="46.02055" lon="6.5116">
        <ele>1896.34</ele>
        <time>2019-01-15T13:53:41Z</time>
      </trkpt>
      <trkpt lat="46.02056" lon="6.51154">
        <ele>1897.78</ele>
        <time>2019-01-15T13:53:48Z</time>
      </trkpt>
      <trkpt lat="46.02061" lon="6.5114">
        <ele>1900.66</ele>
        <time>2019-01-15T13:54:03Z</time>
      </trkpt>
      <trkpt lat="46.02066" lon="6.51126">
        <ele>1904.03</ele>
        <time>2019-01-15T13:54:18Z</time>
      </trkpt>
      <trkpt lat="46.02067" lon="6.51122">
        <ele>1904.03</ele>
        <time>2019-01-15T13:54:21Z</time>
      </trkpt>
      <trkpt lat="46.02068" lon="6.5112">
        <ele>1904.51</ele>
        <time>2019-01-15T13:54:23Z</time>
      </trkpt>
      <trkpt lat="46.02068" lon="6.51118">
        <ele>1904.99</ele>
        <time>2019-01-15T13:54:25Z</time>
      </trkpt>
      <trkpt lat="46.02072" lon="6.51105">
        <ele>1908.35</ele>
        <time>2019-01-15T13:54:41Z</time>
      </trkpt>
      <trkpt lat="46.02073" lon="6.51095">
        <ele>1911.24</ele>
        <time>2019-01-15T13:54:55Z</time>
      </trkpt>
      <trkpt lat="46.02079" lon="6.51093">
        <ele>1914.6</ele>
        <time>2019-01-15T13:55:20Z</time>
      </trkpt>
      <trkpt lat="46.02091" lon="6.51098">
        <ele>1917.49</ele>
        <time>2019-01-15T13:55:39Z</time>
      </trkpt>
      <trkpt lat="46.02095" lon="6.51096">
        <ele>1919.89</ele>
        <time>2019-01-15T13:55:47Z</time>
      </trkpt>
      <trkpt lat="46.02096" lon="6.51093">
        <ele>1920.37</ele>
        <time>2019-01-15T13:55:51Z</time>
      </trkpt>
      <trkpt lat="46.02097" lon="6.51087">
        <ele>1921.33</ele>
        <time>2019-01-15T13:55:57Z</time>
      </trkpt>
      <trkpt lat="46.02098" lon="6.51085">
        <ele>1921.81</ele>
        <time>2019-01-15T13:55:59Z</time>
      </trkpt>
      <trkpt lat="46.02098" lon="6.51084">
        <ele>1921.81</ele>
        <time>2019-01-15T13:56:00Z</time>
      </trkpt>
      <trkpt lat="46.02098" lon="6.51078">
        <ele>1922.77</ele>
        <time>2019-01-15T13:56:05Z</time>
      </trkpt>
      <trkpt lat="46.02098" lon="6.5107">
        <ele>1924.22</ele>
        <time>2019-01-15T13:56:13Z</time>
      </trkpt>
      <trkpt lat="46.02099" lon="6.51067">
        <ele>1925.18</ele>
        <time>2019-01-15T13:56:17Z</time>
      </trkpt>
      <trkpt lat="46.02099" lon="6.51065">
        <ele>1925.66</ele>
        <time>2019-01-15T13:56:19Z</time>
      </trkpt>
      <trkpt lat="46.02101" lon="6.51058">
        <ele>1927.58</ele>
        <time>2019-01-15T13:56:27Z</time>
      </trkpt>
      <trkpt lat="46.02111" lon="6.51052">
        <ele>1930.46</ele>
        <time>2019-01-15T13:56:41Z</time>
      </trkpt>
      <trkpt lat="46.02129" lon="6.51045">
        <ele>1933.83</ele>
        <time>2019-01-15T13:56:57Z</time>
      </trkpt>
      <trkpt lat="46.02137" lon="6.51045">
        <ele>1934.79</ele>
        <time>2019-01-15T13:57:08Z</time>
      </trkpt>
      <trkpt lat="46.02137" lon="6.51048">
        <ele>1936.71</ele>
        <time>2019-01-15T13:57:17Z</time>
      </trkpt>
      <trkpt lat="46.02131" lon="6.51053">
        <ele>1939.6</ele>
        <time>2019-01-15T13:57:36Z</time>
      </trkpt>
      <trkpt lat="46.02132" lon="6.51049">
        <ele>1942.96</ele>
        <time>2019-01-15T13:57:52Z</time>
      </trkpt>
      <trkpt lat="46.02132" lon="6.51047">
        <ele>1942.96</ele>
        <time>2019-01-15T13:57:54Z</time>
      </trkpt>
      <trkpt lat="46.02135" lon="6.51037">
        <ele>1944.88</ele>
        <time>2019-01-15T13:58:05Z</time>
      </trkpt>
      <trkpt lat="46.02138" lon="6.51027">
        <ele>1946.81</ele>
        <time>2019-01-15T13:58:15Z</time>
      </trkpt>
      <trkpt lat="46.02138" lon="6.51026">
        <ele>1946.81</ele>
        <time>2019-01-15T13:58:16Z</time>
      </trkpt>
      <trkpt lat="46.0214" lon="6.51012">
        <ele>1950.17</ele>
        <time>2019-01-15T13:58:32Z</time>
      </trkpt>
      <trkpt lat="46.02142" lon="6.51003">
        <ele>1953.06</ele>
        <time>2019-01-15T13:58:47Z</time>
      </trkpt>
      <trkpt lat="46.02151" lon="6.51001">
        <ele>1955.94</ele>
        <time>2019-01-15T13:58:59Z</time>
      </trkpt>
      <trkpt lat="46.02154" lon="6.50998">
        <ele>1957.38</ele>
        <time>2019-01-15T13:59:09Z</time>
      </trkpt>
      <trkpt lat="46.02154" lon="6.50998">
        <ele>1960.27</ele>
        <time>2019-01-15T13:59:30Z</time>
      </trkpt>
      <trkpt lat="46.02158" lon="6.51003">
        <ele>1963.63</ele>
        <time>2019-01-15T13:59:50Z</time>
      </trkpt>
      <trkpt lat="46.02157" lon="6.50991">
        <ele>1966.99</ele>
        <time>2019-01-15T14:00:07Z</time>
      </trkpt>
      <trkpt lat="46.02162" lon="6.50998">
        <ele>1969.88</ele>
        <time>2019-01-15T14:00:29Z</time>
      </trkpt>
      <trkpt lat="46.02164" lon="6.50994">
        <ele>1972.76</ele>
        <time>2019-01-15T14:00:43Z</time>
      </trkpt>
      <trkpt lat="46.0217" lon="6.51002">
        <ele>1976.13</ele>
        <time>2019-01-15T14:01:06Z</time>
      </trkpt>
      <trkpt lat="46.02176" lon="6.51004">
        <ele>1979.49</ele>
        <time>2019-01-15T14:01:28Z</time>
      </trkpt>
      <trkpt lat="46.0218" lon="6.50994">
        <ele>1982.38</ele>
        <time>2019-01-15T14:01:42Z</time>
      </trkpt>
      <trkpt lat="46.02186" lon="6.51002">
        <ele>1985.26</ele>
        <time>2019-01-15T14:02:04Z</time>
      </trkpt>
      <trkpt lat="46.02186" lon="6.51009">
        <ele>1987.18</ele>
        <time>2019-01-15T14:02:18Z</time>
      </trkpt>
      <trkpt lat="46.02186" lon="6.51029">
        <ele>1990.55</ele>
        <time>2019-01-15T14:02:37Z</time>
      </trkpt>
      <trkpt lat="46.02186" lon="6.51032">
        <ele>1991.99</ele>
        <time>2019-01-15T14:02:49Z</time>
      </trkpt>
      <trkpt lat="46.0219" lon="6.5103">
        <ele>1994.87</ele>
        <time>2019-01-15T14:03:17Z</time>
      </trkpt>
      <trkpt lat="46.02192" lon="6.51028">
        <ele>1998.24</ele>
        <time>2019-01-15T14:03:45Z</time>
      </trkpt>
      <trkpt lat="46.02193" lon="6.51023">
        <ele>2000.16</ele>
        <time>2019-01-15T14:04:23Z</time>
      </trkpt>
      <trkpt lat="46.02197" lon="6.5102">
        <ele>2003.04</ele>
        <time>2019-01-15T14:05:12Z</time>
      </trkpt>
      <trkpt lat="46.02193" lon="6.51023">
        <ele>2004.01</ele>
        <time>2019-01-15T14:06:30Z</time>
      </trkpt>
      <trkpt lat="46.02192" lon="6.51022">
        <ele>2004.01</ele>
        <time>2019-01-15T14:06:43Z</time>
      </trkpt>
      <trkpt lat="46.02194" lon="6.51024">
        <ele>2004.97</ele>
        <time>2019-01-15T14:07:20Z</time>
      </trkpt>
      <trkpt lat="46.02194" lon="6.51025">
        <ele>2004.97</ele>
        <time>2019-01-15T14:07:34Z</time>
      </trkpt>
      <trkpt lat="46.02201" lon="6.51033">
        <ele>2008.33</ele>
        <time>2019-01-15T14:15:25Z</time>
      </trkpt>
      <trkpt lat="46.02202" lon="6.51039">
        <ele>2009.77</ele>
        <time>2019-01-15T14:15:32Z</time>
      </trkpt>
      <trkpt lat="46.02203" lon="6.51042">
        <ele>2010.73</ele>
        <time>2019-01-15T14:15:35Z</time>
      </trkpt>
      <trkpt lat="46.02206" lon="6.51053">
        <ele>2014.1</ele>
        <time>2019-01-15T14:15:48Z</time>
      </trkpt>
      <trkpt lat="46.02208" lon="6.51054">
        <ele>2015.54</ele>
        <time>2019-01-15T14:15:53Z</time>
      </trkpt>
      <trkpt lat="46.02213" lon="6.51054">
        <ele>2017.46</ele>
        <time>2019-01-15T14:16:02Z</time>
      </trkpt>
      <trkpt lat="46.02214" lon="6.51055">
        <ele>2018.43</ele>
        <time>2019-01-15T14:16:04Z</time>
      </trkpt>
      <trkpt lat="46.02214" lon="6.5106">
        <ele>2019.39</ele>
        <time>2019-01-15T14:16:10Z</time>
      </trkpt>
      <trkpt lat="46.02214" lon="6.51062">
        <ele>2019.87</ele>
        <time>2019-01-15T14:16:12Z</time>
      </trkpt>
      <trkpt lat="46.02214" lon="6.51071">
        <ele>2023.23</ele>
        <time>2019-01-15T14:16:28Z</time>
      </trkpt>
      <trkpt lat="46.02222" lon="6.51068">
        <ele>2026.12</ele>
        <time>2019-01-15T14:16:49Z</time>
      </trkpt>
      <trkpt lat="46.02224" lon="6.51071">
        <ele>2029</ele>
        <time>2019-01-15T14:17:07Z</time>
      </trkpt>
      <trkpt lat="46.02226" lon="6.51075">
        <ele>2032.36</ele>
        <time>2019-01-15T14:17:32Z</time>
      </trkpt>
      <trkpt lat="46.02232" lon="6.51075">
        <ele>2035.25</ele>
        <time>2019-01-15T14:18:00Z</time>
      </trkpt>
      <trkpt lat="46.02232" lon="6.51074">
        <ele>2036.21</ele>
        <time>2019-01-15T14:18:23Z</time>
      </trkpt>
      <trkpt lat="46.02232" lon="6.51077">
        <ele>2037.17</ele>
        <time>2019-01-15T14:18:46Z</time>
      </trkpt>
      <trkpt lat="46.02237" lon="6.51072">
        <ele>2038.61</ele>
        <time>2019-01-15T14:19:13Z</time>
      </trkpt>
      <trkpt lat="46.02241" lon="6.51071">
        <ele>2040.05</ele>
        <time>2019-01-15T14:19:19Z</time>
      </trkpt>
      <trkpt lat="46.02251" lon="6.51069">
        <ele>2043.42</ele>
        <time>2019-01-15T14:19:36Z</time>
      </trkpt>
      <trkpt lat="46.02255" lon="6.51068">
        <ele>2044.38</ele>
        <time>2019-01-15T14:19:43Z</time>
      </trkpt>
      <trkpt lat="46.02258" lon="6.51068">
        <ele>2045.34</ele>
        <time>2019-01-15T14:19:48Z</time>
      </trkpt>
      <trkpt lat="46.02265" lon="6.51068">
        <ele>2048.23</ele>
        <time>2019-01-15T14:20:03Z</time>
      </trkpt>
      <trkpt lat="46.02274" lon="6.51072">
        <ele>2051.59</ele>
        <time>2019-01-15T14:20:19Z</time>
      </trkpt>
      <trkpt lat="46.02274" lon="6.51084">
        <ele>2054.47</ele>
        <time>2019-01-15T14:20:35Z</time>
      </trkpt>
      <trkpt lat="46.02275" lon="6.51088">
        <ele>2055.44</ele>
        <time>2019-01-15T14:20:38Z</time>
      </trkpt>
      <trkpt lat="46.02276" lon="6.5109">
        <ele>2055.92</ele>
        <time>2019-01-15T14:20:40Z</time>
      </trkpt>
      <trkpt lat="46.02279" lon="6.51095">
        <ele>2057.36</ele>
        <time>2019-01-15T14:20:46Z</time>
      </trkpt>
      <trkpt lat="46.0228" lon="6.51096">
        <ele>2057.84</ele>
        <time>2019-01-15T14:20:47Z</time>
      </trkpt>
      <trkpt lat="46.0228" lon="6.51097">
        <ele>2057.84</ele>
        <time>2019-01-15T14:20:48Z</time>
      </trkpt>
      <trkpt lat="46.02281" lon="6.51098">
        <ele>2057.84</ele>
        <time>2019-01-15T14:20:49Z</time>
      </trkpt>
      <trkpt lat="46.02281" lon="6.51099">
        <ele>2058.32</ele>
        <time>2019-01-15T14:20:50Z</time>
      </trkpt>
      <trkpt lat="46.02288" lon="6.51104">
        <ele>2061.2</ele>
        <time>2019-01-15T14:21:04Z</time>
      </trkpt>
      <trkpt lat="46.02291" lon="6.51109">
        <ele>2063.13</ele>
        <time>2019-01-15T14:21:11Z</time>
      </trkpt>
      <trkpt lat="46.02292" lon="6.5111">
        <ele>2063.61</ele>
        <time>2019-01-15T14:21:13Z</time>
      </trkpt>
      <trkpt lat="46.02297" lon="6.51121">
        <ele>2066.97</ele>
        <time>2019-01-15T14:21:27Z</time>
      </trkpt>
      <trkpt lat="46.023" lon="6.51132">
        <ele>2069.86</ele>
        <time>2019-01-15T14:21:42Z</time>
      </trkpt>
      <trkpt lat="46.02302" lon="6.51144">
        <ele>2072.74</ele>
        <time>2019-01-15T14:21:56Z</time>
      </trkpt>
      <trkpt lat="46.02303" lon="6.51154">
        <ele>2076.1</ele>
        <time>2019-01-15T14:22:09Z</time>
      </trkpt>
      <trkpt lat="46.02305" lon="6.51164">
        <ele>2078.99</ele>
        <time>2019-01-15T14:22:23Z</time>
      </trkpt>
      <trkpt lat="46.02303" lon="6.51176">
        <ele>2081.87</ele>
        <time>2019-01-15T14:22:37Z</time>
      </trkpt>
      <trkpt lat="46.02302" lon="6.51198">
        <ele>2085.24</ele>
        <time>2019-01-15T14:22:58Z</time>
      </trkpt>
      <trkpt lat="46.02297" lon="6.51216">
        <ele>2088.12</ele>
        <time>2019-01-15T14:23:16Z</time>
      </trkpt>
      <trkpt lat="46.02294" lon="6.51224">
        <ele>2089.08</ele>
        <time>2019-01-15T14:23:23Z</time>
      </trkpt>
      <trkpt lat="46.02294" lon="6.51226">
        <ele>2089.56</ele>
        <time>2019-01-15T14:23:25Z</time>
      </trkpt>
      <trkpt lat="46.02292" lon="6.51242">
        <ele>2091.97</ele>
        <time>2019-01-15T14:23:41Z</time>
      </trkpt>
      <trkpt lat="46.02292" lon="6.51245">
        <ele>2092.93</ele>
        <time>2019-01-15T14:23:44Z</time>
      </trkpt>
      <trkpt lat="46.02292" lon="6.51253">
        <ele>2094.37</ele>
        <time>2019-01-15T14:23:50Z</time>
      </trkpt>
      <trkpt lat="46.02289" lon="6.51261">
        <ele>2097.25</ele>
        <time>2019-01-15T14:23:59Z</time>
      </trkpt>
      <trkpt lat="46.02289" lon="6.51263">
        <ele>2097.73</ele>
        <time>2019-01-15T14:24:01Z</time>
      </trkpt>
      <trkpt lat="46.02285" lon="6.51274">
        <ele>2099.66</ele>
        <time>2019-01-15T14:25:11Z</time>
      </trkpt>
      <trkpt lat="46.02282" lon="6.51284">
        <ele>2102.54</ele>
        <time>2019-01-15T14:25:21Z</time>
      </trkpt>
      <trkpt lat="46.02274" lon="6.5129">
        <ele>2105.91</ele>
        <time>2019-01-15T14:25:32Z</time>
      </trkpt>
      <trkpt lat="46.02271" lon="6.5129">
        <ele>2106.39</ele>
        <time>2019-01-15T14:25:35Z</time>
      </trkpt>
      <trkpt lat="46.02257" lon="6.51287">
        <ele>2108.79</ele>
        <time>2019-01-15T14:25:53Z</time>
      </trkpt>
      <trkpt lat="46.0225" lon="6.51284">
        <ele>2110.23</ele>
        <time>2019-01-15T14:26:18Z</time>
      </trkpt>
      <trkpt lat="46.02248" lon="6.51282">
        <ele>2109.75</ele>
        <time>2019-01-15T14:26:20Z</time>
      </trkpt>
      <trkpt lat="46.02248" lon="6.51281">
        <ele>2109.75</ele>
        <time>2019-01-15T14:26:21Z</time>
      </trkpt>
      <trkpt lat="46.02248" lon="6.51276">
        <ele>2108.79</ele>
        <time>2019-01-15T14:26:56Z</time>
      </trkpt>
      <trkpt lat="46.02247" lon="6.51277">
        <ele>2108.79</ele>
        <time>2019-01-15T14:27:14Z</time>
      </trkpt>
      <trkpt lat="46.02248" lon="6.51277">
        <ele>2108.79</ele>
        <time>2019-01-15T14:27:46Z</time>
      </trkpt>
      <trkpt lat="46.02247" lon="6.51276">
        <ele>2108.31</ele>
        <time>2019-01-15T14:28:04Z</time>
      </trkpt>
      <trkpt lat="46.02247" lon="6.51276">
        <ele>2108.31</ele>
        <time>2019-01-15T14:28:24Z</time>
      </trkpt>
      <trkpt lat="46.02247" lon="6.51276">
        <ele>2108.79</ele>
        <time>2019-01-15T14:28:43Z</time>
      </trkpt>
      <trkpt lat="46.02248" lon="6.51276">
        <ele>2108.79</ele>
        <time>2019-01-15T14:29:39Z</time>
      </trkpt>
      <trkpt lat="46.02248" lon="6.51277">
        <ele>2108.31</ele>
        <time>2019-01-15T14:30:09Z</time>
      </trkpt>
      <trkpt lat="46.02248" lon="6.51277">
        <ele>2108.31</ele>
        <time>2019-01-15T14:30:31Z</time>
      </trkpt>
      <trkpt lat="46.02248" lon="6.51277">
        <ele>2108.79</ele>
        <time>2019-01-15T14:30:45Z</time>
      </trkpt>
      <trkpt lat="46.02247" lon="6.51276">
        <ele>2108.79</ele>
        <time>2019-01-15T14:30:59Z</time>
      </trkpt>
      <trkpt lat="46.02246" lon="6.51276">
        <ele>2108.31</ele>
        <time>2019-01-15T14:31:15Z</time>
      </trkpt>
      <trkpt lat="46.02246" lon="6.51276">
        <ele>2108.79</ele>
        <time>2019-01-15T14:31:34Z</time>
      </trkpt>
      <trkpt lat="46.02246" lon="6.51275">
        <ele>2108.79</ele>
        <time>2019-01-15T14:31:54Z</time>
      </trkpt>
      <trkpt lat="46.02246" lon="6.51276">
        <ele>2108.79</ele>
        <time>2019-01-15T14:32:23Z</time>
      </trkpt>
      <trkpt lat="46.02246" lon="6.51277">
        <ele>2108.79</ele>
        <time>2019-01-15T14:32:40Z</time>
      </trkpt>
      <trkpt lat="46.02246" lon="6.51276">
        <ele>2108.79</ele>
        <time>2019-01-15T14:32:57Z</time>
      </trkpt>
      <trkpt lat="46.02247" lon="6.51278">
        <ele>2108.79</ele>
        <time>2019-01-15T14:33:05Z</time>
      </trkpt>
      <trkpt lat="46.02246" lon="6.51276">
        <ele>2109.27</ele>
        <time>2019-01-15T14:33:26Z</time>
      </trkpt>
      <trkpt lat="46.02247" lon="6.51276">
        <ele>2108.79</ele>
        <time>2019-01-15T14:33:49Z</time>
      </trkpt>
      <trkpt lat="46.02247" lon="6.51277">
        <ele>2109.27</ele>
        <time>2019-01-15T14:34:14Z</time>
      </trkpt>
      <trkpt lat="46.02246" lon="6.51278">
        <ele>2109.75</ele>
        <time>2019-01-15T14:34:36Z</time>
      </trkpt>
      <trkpt lat="46.02246" lon="6.51276">
        <ele>2108.79</ele>
        <time>2019-01-15T14:35:34Z</time>
      </trkpt>
      <trkpt lat="46.02246" lon="6.51276">
        <ele>2109.27</ele>
        <time>2019-01-15T14:36:25Z</time>
      </trkpt>
      <trkpt lat="46.02246" lon="6.51276">
        <ele>2109.27</ele>
        <time>2019-01-15T14:37:05Z</time>
      </trkpt>
      <trkpt lat="46.02248" lon="6.51275">
        <ele>2110.23</ele>
        <time>2019-01-15T14:38:26Z</time>
      </trkpt>
      <trkpt lat="46.02247" lon="6.51274">
        <ele>2110.23</ele>
        <time>2019-01-15T14:38:58Z</time>
      </trkpt>
      <trkpt lat="46.02247" lon="6.51276">
        <ele>2109.75</ele>
        <time>2019-01-15T14:39:18Z</time>
      </trkpt>
      <trkpt lat="46.02248" lon="6.51277">
        <ele>2110.23</ele>
        <time>2019-01-15T14:39:35Z</time>
      </trkpt>
      <trkpt lat="46.02247" lon="6.51274">
        <ele>2110.23</ele>
        <time>2019-01-15T14:43:00Z</time>
      </trkpt>
      <trkpt lat="46.02247" lon="6.51276">
        <ele>2109.27</ele>
        <time>2019-01-15T14:44:00Z</time>
      </trkpt>
      <trkpt lat="46.02247" lon="6.51275">
        <ele>2110.23</ele>
        <time>2019-01-15T14:45:49Z</time>
      </trkpt>
      <trkpt lat="46.02247" lon="6.51275">
        <ele>2110.23</ele>
        <time>2019-01-15T14:46:42Z</time>
      </trkpt>
      <trkpt lat="46.02247" lon="6.51275">
        <ele>2110.23</ele>
        <time>2019-01-15T14:47:06Z</time>
      </trkpt>
      <trkpt lat="46.02254" lon="6.51284">
        <ele>2110.71</ele>
        <time>2019-01-15T14:47:42Z</time>
      </trkpt>
      <trkpt lat="46.02257" lon="6.51285">
        <ele>2110.71</ele>
        <time>2019-01-15T14:47:48Z</time>
      </trkpt>
      <trkpt lat="46.02258" lon="6.51285">
        <ele>2110.71</ele>
        <time>2019-01-15T14:47:49Z</time>
      </trkpt>
      <trkpt lat="46.0226" lon="6.51283">
        <ele>2110.23</ele>
        <time>2019-01-15T14:47:50Z</time>
      </trkpt>
      <trkpt lat="46.02261" lon="6.51281">
        <ele>2110.23</ele>
        <time>2019-01-15T14:47:51Z</time>
      </trkpt>
      <trkpt lat="46.02264" lon="6.51279">
        <ele>2109.27</ele>
        <time>2019-01-15T14:47:52Z</time>
      </trkpt>
      <trkpt lat="46.02269" lon="6.51278">
        <ele>2107.83</ele>
        <time>2019-01-15T14:47:53Z</time>
      </trkpt>
      <trkpt lat="46.02274" lon="6.51279">
        <ele>2106.39</ele>
        <time>2019-01-15T14:47:54Z</time>
      </trkpt>
      <trkpt lat="46.02279" lon="6.5128">
        <ele>2105.42</ele>
        <time>2019-01-15T14:47:55Z</time>
      </trkpt>
      <trkpt lat="46.02284" lon="6.51277">
        <ele>2103.98</ele>
        <time>2019-01-15T14:47:56Z</time>
      </trkpt>
      <trkpt lat="46.02288" lon="6.51271">
        <ele>2103.02</ele>
        <time>2019-01-15T14:47:57Z</time>
      </trkpt>
      <trkpt lat="46.0229" lon="6.51262">
        <ele>2101.1</ele>
        <time>2019-01-15T14:47:58Z</time>
      </trkpt>
      <trkpt lat="46.0229" lon="6.5125">
        <ele>2097.73</ele>
        <time>2019-01-15T14:47:59Z</time>
      </trkpt>
      <trkpt lat="46.02293" lon="6.51238">
        <ele>2094.85</ele>
        <time>2019-01-15T14:48:00Z</time>
      </trkpt>
      <trkpt lat="46.02296" lon="6.51225">
        <ele>2093.41</ele>
        <time>2019-01-15T14:48:01Z</time>
      </trkpt>
      <trkpt lat="46.02298" lon="6.51213">
        <ele>2091.49</ele>
        <time>2019-01-15T14:48:02Z</time>
      </trkpt>
      <trkpt lat="46.02299" lon="6.51202">
        <ele>2089.08</ele>
        <time>2019-01-15T14:48:03Z</time>
      </trkpt>
      <trkpt lat="46.02302" lon="6.51177">
        <ele>2085.24</ele>
        <time>2019-01-15T14:48:06Z</time>
      </trkpt>
      <trkpt lat="46.02301" lon="6.51175">
        <ele>2083.79</ele>
        <time>2019-01-15T14:48:09Z</time>
      </trkpt>
      <trkpt lat="46.023" lon="6.51175">
        <ele>2083.79</ele>
        <time>2019-01-15T14:48:24Z</time>
      </trkpt>
      <trkpt lat="46.02302" lon="6.51169">
        <ele>2083.31</ele>
        <time>2019-01-15T14:48:35Z</time>
      </trkpt>
      <trkpt lat="46.02303" lon="6.51166">
        <ele>2082.83</ele>
        <time>2019-01-15T14:48:36Z</time>
      </trkpt>
      <trkpt lat="46.02303" lon="6.5116">
        <ele>2081.87</ele>
        <time>2019-01-15T14:48:37Z</time>
      </trkpt>
      <trkpt lat="46.02302" lon="6.51152">
        <ele>2079.95</ele>
        <time>2019-01-15T14:48:38Z</time>
      </trkpt>
      <trkpt lat="46.02301" lon="6.51142">
        <ele>2078.51</ele>
        <time>2019-01-15T14:48:39Z</time>
      </trkpt>
      <trkpt lat="46.023" lon="6.51132">
        <ele>2075.14</ele>
        <time>2019-01-15T14:48:40Z</time>
      </trkpt>
      <trkpt lat="46.02297" lon="6.51122">
        <ele>2072.74</ele>
        <time>2019-01-15T14:48:41Z</time>
      </trkpt>
      <trkpt lat="46.02292" lon="6.51112">
        <ele>2070.34</ele>
        <time>2019-01-15T14:48:42Z</time>
      </trkpt>
      <trkpt lat="46.02287" lon="6.51103">
        <ele>2067.93</ele>
        <time>2019-01-15T14:48:43Z</time>
      </trkpt>
      <trkpt lat="46.02281" lon="6.51094">
        <ele>2065.53</ele>
        <time>2019-01-15T14:48:44Z</time>
      </trkpt>
      <trkpt lat="46.02275" lon="6.51086">
        <ele>2062.17</ele>
        <time>2019-01-15T14:48:45Z</time>
      </trkpt>
      <trkpt lat="46.02271" lon="6.5108">
        <ele>2060.24</ele>
        <time>2019-01-15T14:48:46Z</time>
      </trkpt>
      <trkpt lat="46.02268" lon="6.51074">
        <ele>2056.88</ele>
        <time>2019-01-15T14:48:47Z</time>
      </trkpt>
      <trkpt lat="46.02265" lon="6.51068">
        <ele>2054.47</ele>
        <time>2019-01-15T14:48:48Z</time>
      </trkpt>
      <trkpt lat="46.02262" lon="6.51066">
        <ele>2052.55</ele>
        <time>2019-01-15T14:48:49Z</time>
      </trkpt>
      <trkpt lat="46.0226" lon="6.51065">
        <ele>2050.63</ele>
        <time>2019-01-15T14:48:50Z</time>
      </trkpt>
      <trkpt lat="46.02257" lon="6.51062">
        <ele>2049.67</ele>
        <time>2019-01-15T14:48:51Z</time>
      </trkpt>
      <trkpt lat="46.02254" lon="6.51059">
        <ele>2048.71</ele>
        <time>2019-01-15T14:48:52Z</time>
      </trkpt>
      <trkpt lat="46.0225" lon="6.51057">
        <ele>2045.82</ele>
        <time>2019-01-15T14:48:53Z</time>
      </trkpt>
      <trkpt lat="46.02245" lon="6.51052">
        <ele>2041.02</ele>
        <time>2019-01-15T14:48:55Z</time>
      </trkpt>
      <trkpt lat="46.02243" lon="6.51051">
        <ele>2037.65</ele>
        <time>2019-01-15T14:48:59Z</time>
      </trkpt>
      <trkpt lat="46.02233" lon="6.51061">
        <ele>2036.69</ele>
        <time>2019-01-15T14:49:49Z</time>
      </trkpt>
      <trkpt lat="46.02231" lon="6.51061">
        <ele>2036.21</ele>
        <time>2019-01-15T14:49:50Z</time>
      </trkpt>
      <trkpt lat="46.02229" lon="6.5106">
        <ele>2035.73</ele>
        <time>2019-01-15T14:49:51Z</time>
      </trkpt>
      <trkpt lat="46.02226" lon="6.5106">
        <ele>2034.77</ele>
        <time>2019-01-15T14:49:52Z</time>
      </trkpt>
      <trkpt lat="46.02223" lon="6.51061">
        <ele>2033.33</ele>
        <time>2019-01-15T14:49:53Z</time>
      </trkpt>
      <trkpt lat="46.02219" lon="6.51064">
        <ele>2031.88</ele>
        <time>2019-01-15T14:49:54Z</time>
      </trkpt>
      <trkpt lat="46.02214" lon="6.51067">
        <ele>2030.44</ele>
        <time>2019-01-15T14:49:55Z</time>
      </trkpt>
      <trkpt lat="46.02209" lon="6.5107">
        <ele>2029</ele>
        <time>2019-01-15T14:49:56Z</time>
      </trkpt>
      <trkpt lat="46.02205" lon="6.51071">
        <ele>2027.08</ele>
        <time>2019-01-15T14:49:57Z</time>
      </trkpt>
      <trkpt lat="46.02201" lon="6.5107">
        <ele>2025.64</ele>
        <time>2019-01-15T14:49:58Z</time>
      </trkpt>
      <trkpt lat="46.02198" lon="6.51059">
        <ele>2022.27</ele>
        <time>2019-01-15T14:49:59Z</time>
      </trkpt>
      <trkpt lat="46.02195" lon="6.51052">
        <ele>2019.39</ele>
        <time>2019-01-15T14:50:00Z</time>
      </trkpt>
      <trkpt lat="46.02193" lon="6.51046">
        <ele>2016.98</ele>
        <time>2019-01-15T14:50:01Z</time>
      </trkpt>
      <trkpt lat="46.02192" lon="6.51041">
        <ele>2013.14</ele>
        <time>2019-01-15T14:50:03Z</time>
      </trkpt>
      <trkpt lat="46.02193" lon="6.51041">
        <ele>2011.22</ele>
        <time>2019-01-15T14:50:06Z</time>
      </trkpt>
      <trkpt lat="46.02195" lon="6.5104">
        <ele>2011.22</ele>
        <time>2019-01-15T14:50:12Z</time>
      </trkpt>
      <trkpt lat="46.02196" lon="6.51034">
        <ele>2009.77</ele>
        <time>2019-01-15T14:52:09Z</time>
      </trkpt>
      <trkpt lat="46.02196" lon="6.51033">
        <ele>2009.29</ele>
        <time>2019-01-15T14:52:10Z</time>
      </trkpt>
      <trkpt lat="46.02196" lon="6.51032">
        <ele>2007.85</ele>
        <time>2019-01-15T14:52:11Z</time>
      </trkpt>
      <trkpt lat="46.02195" lon="6.51031">
        <ele>2007.37</ele>
        <time>2019-01-15T14:52:12Z</time>
      </trkpt>
      <trkpt lat="46.02194" lon="6.51034">
        <ele>2004.01</ele>
        <time>2019-01-15T14:52:19Z</time>
      </trkpt>
      <trkpt lat="46.0219" lon="6.51045">
        <ele>2000.16</ele>
        <time>2019-01-15T14:52:23Z</time>
      </trkpt>
      <trkpt lat="46.02187" lon="6.51044">
        <ele>1998.24</ele>
        <time>2019-01-15T14:52:25Z</time>
      </trkpt>
      <trkpt lat="46.02185" lon="6.51042">
        <ele>1995.83</ele>
        <time>2019-01-15T14:52:26Z</time>
      </trkpt>
      <trkpt lat="46.02183" lon="6.51038">
        <ele>1992.47</ele>
        <time>2019-01-15T14:52:27Z</time>
      </trkpt>
      <trkpt lat="46.02181" lon="6.51035">
        <ele>1990.07</ele>
        <time>2019-01-15T14:52:28Z</time>
      </trkpt>
      <trkpt lat="46.02178" lon="6.51034">
        <ele>1988.14</ele>
        <time>2019-01-15T14:52:29Z</time>
      </trkpt>
      <trkpt lat="46.02177" lon="6.51031">
        <ele>1985.74</ele>
        <time>2019-01-15T14:52:30Z</time>
      </trkpt>
      <trkpt lat="46.02177" lon="6.51029">
        <ele>1983.82</ele>
        <time>2019-01-15T14:52:31Z</time>
      </trkpt>
      <trkpt lat="46.02175" lon="6.51027">
        <ele>1982.38</ele>
        <time>2019-01-15T14:52:33Z</time>
      </trkpt>
      <trkpt lat="46.02176" lon="6.51027">
        <ele>1982.38</ele>
        <time>2019-01-15T14:52:34Z</time>
      </trkpt>
      <trkpt lat="46.02177" lon="6.51027">
        <ele>1982.38</ele>
        <time>2019-01-15T14:52:37Z</time>
      </trkpt>
      <trkpt lat="46.02178" lon="6.51027">
        <ele>1982.38</ele>
        <time>2019-01-15T14:52:38Z</time>
      </trkpt>
      <trkpt lat="46.02179" lon="6.51026">
        <ele>1982.38</ele>
        <time>2019-01-15T14:52:47Z</time>
      </trkpt>
      <trkpt lat="46.02174" lon="6.51019">
        <ele>1982.38</ele>
        <time>2019-01-15T14:53:19Z</time>
      </trkpt>
      <trkpt lat="46.02169" lon="6.51018">
        <ele>1982.38</ele>
        <time>2019-01-15T14:53:30Z</time>
      </trkpt>
      <trkpt lat="46.02168" lon="6.51018">
        <ele>1982.38</ele>
        <time>2019-01-15T14:53:31Z</time>
      </trkpt>
      <trkpt lat="46.02153" lon="6.51006">
        <ele>1982.38</ele>
        <time>2019-01-15T14:54:13Z</time>
      </trkpt>
      <trkpt lat="46.0215" lon="6.51004">
        <ele>1982.38</ele>
        <time>2019-01-15T14:54:17Z</time>
      </trkpt>
      <trkpt lat="46.02145" lon="6.51001">
        <ele>1982.38</ele>
        <time>2019-01-15T14:54:30Z</time>
      </trkpt>
      <trkpt lat="46.02155" lon="6.51011">
        <ele>1982.38</ele>
        <time>2019-01-15T14:54:45Z</time>
      </trkpt>
      <trkpt lat="46.02157" lon="6.51007">
        <ele>1981.41</ele>
        <time>2019-01-15T14:54:49Z</time>
      </trkpt>
      <trkpt lat="46.02156" lon="6.51008">
        <ele>1980.93</ele>
        <time>2019-01-15T14:54:50Z</time>
      </trkpt>
      <trkpt lat="46.02151" lon="6.51011">
        <ele>1978.53</ele>
        <time>2019-01-15T14:54:53Z</time>
      </trkpt>
      <trkpt lat="46.0215" lon="6.5101">
        <ele>1976.61</ele>
        <time>2019-01-15T14:54:54Z</time>
      </trkpt>
      <trkpt lat="46.02147" lon="6.51011">
        <ele>1975.17</ele>
        <time>2019-01-15T14:54:55Z</time>
      </trkpt>
      <trkpt lat="46.02143" lon="6.51011">
        <ele>1972.76</ele>
        <time>2019-01-15T14:54:56Z</time>
      </trkpt>
      <trkpt lat="46.0214" lon="6.51008">
        <ele>1970.84</ele>
        <time>2019-01-15T14:54:57Z</time>
      </trkpt>
      <trkpt lat="46.02139" lon="6.51006">
        <ele>1969.4</ele>
        <time>2019-01-15T14:54:58Z</time>
      </trkpt>
      <trkpt lat="46.02138" lon="6.51006">
        <ele>1968.92</ele>
        <time>2019-01-15T14:54:59Z</time>
      </trkpt>
      <trkpt lat="46.02138" lon="6.51005">
        <ele>1968.44</ele>
        <time>2019-01-15T14:55:00Z</time>
      </trkpt>
      <trkpt lat="46.02139" lon="6.51005">
        <ele>1967.96</ele>
        <time>2019-01-15T14:55:01Z</time>
      </trkpt>
      <trkpt lat="46.02141" lon="6.51007">
        <ele>1967.48</ele>
        <time>2019-01-15T14:55:09Z</time>
      </trkpt>
      <trkpt lat="46.0214" lon="6.51009">
        <ele>1967.48</ele>
        <time>2019-01-15T14:55:25Z</time>
      </trkpt>
      <trkpt lat="46.02135" lon="6.51008">
        <ele>1966.99</ele>
        <time>2019-01-15T14:55:26Z</time>
      </trkpt>
      <trkpt lat="46.02131" lon="6.51009">
        <ele>1964.59</ele>
        <time>2019-01-15T14:55:27Z</time>
      </trkpt>
      <trkpt lat="46.02126" lon="6.51009">
        <ele>1962.19</ele>
        <time>2019-01-15T14:55:28Z</time>
      </trkpt>
      <trkpt lat="46.0212" lon="6.51013">
        <ele>1960.75</ele>
        <time>2019-01-15T14:55:29Z</time>
      </trkpt>
      <trkpt lat="46.02116" lon="6.5102">
        <ele>1958.34</ele>
        <time>2019-01-15T14:55:30Z</time>
      </trkpt>
      <trkpt lat="46.02109" lon="6.51027">
        <ele>1955.94</ele>
        <time>2019-01-15T14:55:31Z</time>
      </trkpt>
      <trkpt lat="46.02104" lon="6.51035">
        <ele>1951.61</ele>
        <time>2019-01-15T14:55:32Z</time>
      </trkpt>
      <trkpt lat="46.02098" lon="6.51045">
        <ele>1946.81</ele>
        <time>2019-01-15T14:55:33Z</time>
      </trkpt>
      <trkpt lat="46.02095" lon="6.51054">
        <ele>1942.96</ele>
        <time>2019-01-15T14:55:34Z</time>
      </trkpt>
      <trkpt lat="46.02091" lon="6.51063">
        <ele>1939.6</ele>
        <time>2019-01-15T14:55:35Z</time>
      </trkpt>
      <trkpt lat="46.02088" lon="6.51071">
        <ele>1937.19</ele>
        <time>2019-01-15T14:55:36Z</time>
      </trkpt>
      <trkpt lat="46.02086" lon="6.5108">
        <ele>1935.27</ele>
        <time>2019-01-15T14:55:37Z</time>
      </trkpt>
      <trkpt lat="46.02082" lon="6.5109">
        <ele>1931.91</ele>
        <time>2019-01-15T14:55:38Z</time>
      </trkpt>
      <trkpt lat="46.02079" lon="6.51102">
        <ele>1929.02</ele>
        <time>2019-01-15T14:55:39Z</time>
      </trkpt>
      <trkpt lat="46.02078" lon="6.51116">
        <ele>1924.7</ele>
        <time>2019-01-15T14:55:40Z</time>
      </trkpt>
      <trkpt lat="46.02078" lon="6.51132">
        <ele>1920.85</ele>
        <time>2019-01-15T14:55:41Z</time>
      </trkpt>
      <trkpt lat="46.02076" lon="6.51149">
        <ele>1915.56</ele>
        <time>2019-01-15T14:55:42Z</time>
      </trkpt>
      <trkpt lat="46.02073" lon="6.51162">
        <ele>1911.24</ele>
        <time>2019-01-15T14:55:43Z</time>
      </trkpt>
      <trkpt lat="46.02069" lon="6.51174">
        <ele>1908.83</ele>
        <time>2019-01-15T14:55:44Z</time>
      </trkpt>
      <trkpt lat="46.02064" lon="6.51187">
        <ele>1906.43</ele>
        <time>2019-01-15T14:55:45Z</time>
      </trkpt>
      <trkpt lat="46.02063" lon="6.51199">
        <ele>1903.55</ele>
        <time>2019-01-15T14:55:46Z</time>
      </trkpt>
      <trkpt lat="46.02061" lon="6.51211">
        <ele>1901.14</ele>
        <time>2019-01-15T14:55:47Z</time>
      </trkpt>
      <trkpt lat="46.02055" lon="6.51228">
        <ele>1895.38</ele>
        <time>2019-01-15T14:55:49Z</time>
      </trkpt>
      <trkpt lat="46.0205" lon="6.51226">
        <ele>1892.97</ele>
        <time>2019-01-15T14:55:50Z</time>
      </trkpt>
      <trkpt lat="46.02048" lon="6.51227">
        <ele>1890.57</ele>
        <time>2019-01-15T14:55:51Z</time>
      </trkpt>
      <trkpt lat="46.02046" lon="6.51228">
        <ele>1888.65</ele>
        <time>2019-01-15T14:55:52Z</time>
      </trkpt>
      <trkpt lat="46.02044" lon="6.51228">
        <ele>1887.21</ele>
        <time>2019-01-15T14:55:53Z</time>
      </trkpt>
      <trkpt lat="46.02044" lon="6.51227">
        <ele>1886.24</ele>
        <time>2019-01-15T14:55:54Z</time>
      </trkpt>
      <trkpt lat="46.02043" lon="6.51227">
        <ele>1886.24</ele>
        <time>2019-01-15T14:55:55Z</time>
      </trkpt>
      <trkpt lat="46.02046" lon="6.51225">
        <ele>1885.76</ele>
        <time>2019-01-15T14:55:59Z</time>
      </trkpt>
      <trkpt lat="46.02048" lon="6.51225">
        <ele>1885.28</ele>
        <time>2019-01-15T14:56:02Z</time>
      </trkpt>
      <trkpt lat="46.02048" lon="6.51218">
        <ele>1885.76</ele>
        <time>2019-01-15T14:56:22Z</time>
      </trkpt>
      <trkpt lat="46.02046" lon="6.51218">
        <ele>1885.76</ele>
        <time>2019-01-15T14:56:24Z</time>
      </trkpt>
      <trkpt lat="46.02037" lon="6.51207">
        <ele>1885.76</ele>
        <time>2019-01-15T14:58:37Z</time>
      </trkpt>
      <trkpt lat="46.02031" lon="6.51209">
        <ele>1885.76</ele>
        <time>2019-01-15T14:59:13Z</time>
      </trkpt>
      <trkpt lat="46.0203" lon="6.51211">
        <ele>1885.76</ele>
        <time>2019-01-15T14:59:14Z</time>
      </trkpt>
      <trkpt lat="46.02022" lon="6.51232">
        <ele>1881.44</ele>
        <time>2019-01-15T14:59:17Z</time>
      </trkpt>
      <trkpt lat="46.02018" lon="6.51242">
        <ele>1880</ele>
        <time>2019-01-15T14:59:18Z</time>
      </trkpt>
      <trkpt lat="46.02013" lon="6.51252">
        <ele>1877.11</ele>
        <time>2019-01-15T14:59:19Z</time>
      </trkpt>
      <trkpt lat="46.0201" lon="6.51262">
        <ele>1874.71</ele>
        <time>2019-01-15T14:59:20Z</time>
      </trkpt>
      <trkpt lat="46.02005" lon="6.51274">
        <ele>1871.34</ele>
        <time>2019-01-15T14:59:21Z</time>
      </trkpt>
      <trkpt lat="46.02" lon="6.51284">
        <ele>1866.54</ele>
        <time>2019-01-15T14:59:22Z</time>
      </trkpt>
      <trkpt lat="46.01996" lon="6.51296">
        <ele>1863.17</ele>
        <time>2019-01-15T14:59:23Z</time>
      </trkpt>
      <trkpt lat="46.01991" lon="6.5131">
        <ele>1857.4</ele>
        <time>2019-01-15T14:59:24Z</time>
      </trkpt>
      <trkpt lat="46.01984" lon="6.5132">
        <ele>1854.52</ele>
        <time>2019-01-15T14:59:25Z</time>
      </trkpt>
      <trkpt lat="46.0198" lon="6.51331">
        <ele>1849.23</ele>
        <time>2019-01-15T14:59:26Z</time>
      </trkpt>
      <trkpt lat="46.01976" lon="6.51342">
        <ele>1844.43</ele>
        <time>2019-01-15T14:59:27Z</time>
      </trkpt>
      <trkpt lat="46.0197" lon="6.5135">
        <ele>1840.1</ele>
        <time>2019-01-15T14:59:28Z</time>
      </trkpt>
      <trkpt lat="46.01967" lon="6.51359">
        <ele>1837.22</ele>
        <time>2019-01-15T14:59:29Z</time>
      </trkpt>
      <trkpt lat="46.01963" lon="6.51368">
        <ele>1832.89</ele>
        <time>2019-01-15T14:59:30Z</time>
      </trkpt>
      <trkpt lat="46.01961" lon="6.51378">
        <ele>1829.53</ele>
        <time>2019-01-15T14:59:31Z</time>
      </trkpt>
      <trkpt lat="46.01959" lon="6.51389">
        <ele>1825.68</ele>
        <time>2019-01-15T14:59:32Z</time>
      </trkpt>
      <trkpt lat="46.01954" lon="6.514">
        <ele>1818.47</ele>
        <time>2019-01-15T14:59:33Z</time>
      </trkpt>
      <trkpt lat="46.01949" lon="6.51411">
        <ele>1813.66</ele>
        <time>2019-01-15T14:59:34Z</time>
      </trkpt>
      <trkpt lat="46.01946" lon="6.51427">
        <ele>1808.38</ele>
        <time>2019-01-15T14:59:35Z</time>
      </trkpt>
      <trkpt lat="46.0194" lon="6.5144">
        <ele>1800.21</ele>
        <time>2019-01-15T14:59:36Z</time>
      </trkpt>
      <trkpt lat="46.01933" lon="6.51452">
        <ele>1795.4</ele>
        <time>2019-01-15T14:59:37Z</time>
      </trkpt>
      <trkpt lat="46.01929" lon="6.51467">
        <ele>1790.59</ele>
        <time>2019-01-15T14:59:38Z</time>
      </trkpt>
      <trkpt lat="46.01924" lon="6.51481">
        <ele>1783.38</ele>
        <time>2019-01-15T14:59:39Z</time>
      </trkpt>
      <trkpt lat="46.01918" lon="6.51494">
        <ele>1778.58</ele>
        <time>2019-01-15T14:59:40Z</time>
      </trkpt>
      <trkpt lat="46.01916" lon="6.51507">
        <ele>1776.17</ele>
        <time>2019-01-15T14:59:41Z</time>
      </trkpt>
      <trkpt lat="46.01912" lon="6.5152">
        <ele>1769.44</ele>
        <time>2019-01-15T14:59:42Z</time>
      </trkpt>
      <trkpt lat="46.01909" lon="6.51533">
        <ele>1765.6</ele>
        <time>2019-01-15T14:59:43Z</time>
      </trkpt>
      <trkpt lat="46.01907" lon="6.51546">
        <ele>1761.75</ele>
        <time>2019-01-15T14:59:44Z</time>
      </trkpt>
      <trkpt lat="46.01906" lon="6.51559">
        <ele>1756.95</ele>
        <time>2019-01-15T14:59:45Z</time>
      </trkpt>
      <trkpt lat="46.01906" lon="6.51573">
        <ele>1753.1</ele>
        <time>2019-01-15T14:59:46Z</time>
      </trkpt>
      <trkpt lat="46.01906" lon="6.51588">
        <ele>1748.29</ele>
        <time>2019-01-15T14:59:47Z</time>
      </trkpt>
      <trkpt lat="46.01904" lon="6.516">
        <ele>1743.97</ele>
        <time>2019-01-15T14:59:48Z</time>
      </trkpt>
      <trkpt lat="46.01902" lon="6.51614">
        <ele>1740.6</ele>
        <time>2019-01-15T14:59:49Z</time>
      </trkpt>
      <trkpt lat="46.019" lon="6.51628">
        <ele>1735.8</ele>
        <time>2019-01-15T14:59:50Z</time>
      </trkpt>
      <trkpt lat="46.01896" lon="6.5164">
        <ele>1730.99</ele>
        <time>2019-01-15T14:59:51Z</time>
      </trkpt>
      <trkpt lat="46.01893" lon="6.51653">
        <ele>1727.63</ele>
        <time>2019-01-15T14:59:52Z</time>
      </trkpt>
      <trkpt lat="46.0189" lon="6.51669">
        <ele>1721.38</ele>
        <time>2019-01-15T14:59:53Z</time>
      </trkpt>
      <trkpt lat="46.01885" lon="6.51683">
        <ele>1715.61</ele>
        <time>2019-01-15T14:59:54Z</time>
      </trkpt>
      <trkpt lat="46.01882" lon="6.51697">
        <ele>1711.28</ele>
        <time>2019-01-15T14:59:55Z</time>
      </trkpt>
      <trkpt lat="46.01877" lon="6.5171">
        <ele>1706.48</ele>
        <time>2019-01-15T14:59:56Z</time>
      </trkpt>
      <trkpt lat="46.01872" lon="6.5172">
        <ele>1703.59</ele>
        <time>2019-01-15T14:59:57Z</time>
      </trkpt>
      <trkpt lat="46.01867" lon="6.51727">
        <ele>1701.19</ele>
        <time>2019-01-15T14:59:58Z</time>
      </trkpt>
      <trkpt lat="46.01865" lon="6.51734">
        <ele>1698.79</ele>
        <time>2019-01-15T14:59:59Z</time>
      </trkpt>
      <trkpt lat="46.01864" lon="6.51741">
        <ele>1697.34</ele>
        <time>2019-01-15T15:00:00Z</time>
      </trkpt>
      <trkpt lat="46.01862" lon="6.5176">
        <ele>1692.54</ele>
        <time>2019-01-15T15:00:02Z</time>
      </trkpt>
      <trkpt lat="46.0186" lon="6.5177">
        <ele>1689.17</ele>
        <time>2019-01-15T15:00:03Z</time>
      </trkpt>
      <trkpt lat="46.01855" lon="6.51789">
        <ele>1685.81</ele>
        <time>2019-01-15T15:00:05Z</time>
      </trkpt>
      <trkpt lat="46.01852" lon="6.51793">
        <ele>1684.85</ele>
        <time>2019-01-15T15:00:06Z</time>
      </trkpt>
      <trkpt lat="46.0185" lon="6.51793">
        <ele>1684.37</ele>
        <time>2019-01-15T15:00:07Z</time>
      </trkpt>
      <trkpt lat="46.0185" lon="6.51792">
        <ele>1683.89</ele>
        <time>2019-01-15T15:00:08Z</time>
      </trkpt>
      <trkpt lat="46.01855" lon="6.51792">
        <ele>1683.89</ele>
        <time>2019-01-15T15:00:28Z</time>
      </trkpt>
      <trkpt lat="46.01856" lon="6.5178">
        <ele>1683.89</ele>
        <time>2019-01-15T15:00:54Z</time>
      </trkpt>
      <trkpt lat="46.01843" lon="6.51778">
        <ele>1683.41</ele>
        <time>2019-01-15T15:01:32Z</time>
      </trkpt>
      <trkpt lat="46.01842" lon="6.51777">
        <ele>1683.41</ele>
        <time>2019-01-15T15:01:34Z</time>
      </trkpt>
      <trkpt lat="46.01841" lon="6.51777">
        <ele>1683.41</ele>
        <time>2019-01-15T15:01:38Z</time>
      </trkpt>
      <trkpt lat="46.01834" lon="6.51771">
        <ele>1683.41</ele>
        <time>2019-01-15T15:02:16Z</time>
      </trkpt>
      <trkpt lat="46.01831" lon="6.51767">
        <ele>1683.89</ele>
        <time>2019-01-15T15:02:52Z</time>
      </trkpt>
      <trkpt lat="46.01829" lon="6.51765">
        <ele>1683.89</ele>
        <time>2019-01-15T15:04:27Z</time>
      </trkpt>
      <trkpt lat="46.01829" lon="6.5177">
        <ele>1683.41</ele>
        <time>2019-01-15T15:05:25Z</time>
      </trkpt>
      <trkpt lat="46.01829" lon="6.51784">
        <ele>1681</ele>
        <time>2019-01-15T15:05:27Z</time>
      </trkpt>
      <trkpt lat="46.01829" lon="6.51794">
        <ele>1679.08</ele>
        <time>2019-01-15T15:05:28Z</time>
      </trkpt>
      <trkpt lat="46.01828" lon="6.51803">
        <ele>1677.16</ele>
        <time>2019-01-15T15:05:29Z</time>
      </trkpt>
      <trkpt lat="46.01826" lon="6.51811">
        <ele>1676.2</ele>
        <time>2019-01-15T15:05:30Z</time>
      </trkpt>
      <trkpt lat="46.01824" lon="6.51818">
        <ele>1675.23</ele>
        <time>2019-01-15T15:05:31Z</time>
      </trkpt>
      <trkpt lat="46.01823" lon="6.51825">
        <ele>1674.27</ele>
        <time>2019-01-15T15:05:32Z</time>
      </trkpt>
      <trkpt lat="46.01823" lon="6.51832">
        <ele>1673.31</ele>
        <time>2019-01-15T15:05:33Z</time>
      </trkpt>
      <trkpt lat="46.01822" lon="6.5184">
        <ele>1672.35</ele>
        <time>2019-01-15T15:05:34Z</time>
      </trkpt>
      <trkpt lat="46.0182" lon="6.51849">
        <ele>1669.95</ele>
        <time>2019-01-15T15:05:35Z</time>
      </trkpt>
      <trkpt lat="46.01816" lon="6.5186">
        <ele>1667.54</ele>
        <time>2019-01-15T15:05:36Z</time>
      </trkpt>
      <trkpt lat="46.0181" lon="6.51869">
        <ele>1664.18</ele>
        <time>2019-01-15T15:05:37Z</time>
      </trkpt>
      <trkpt lat="46.01802" lon="6.51878">
        <ele>1661.3</ele>
        <time>2019-01-15T15:05:38Z</time>
      </trkpt>
      <trkpt lat="46.01796" lon="6.51886">
        <ele>1656.01</ele>
        <time>2019-01-15T15:05:39Z</time>
      </trkpt>
      <trkpt lat="46.0179" lon="6.51892">
        <ele>1651.68</ele>
        <time>2019-01-15T15:05:41Z</time>
      </trkpt>
      <trkpt lat="46.01791" lon="6.51892">
        <ele>1649.76</ele>
        <time>2019-01-15T15:05:44Z</time>
      </trkpt>
      <trkpt lat="46.0179" lon="6.51892">
        <ele>1650.72</ele>
        <time>2019-01-15T15:05:51Z</time>
      </trkpt>
      <trkpt lat="46.01789" lon="6.51892">
        <ele>1651.2</ele>
        <time>2019-01-15T15:05:54Z</time>
      </trkpt>
      <trkpt lat="46.01788" lon="6.5189">
        <ele>1651.2</ele>
        <time>2019-01-15T15:05:58Z</time>
      </trkpt>
      <trkpt lat="46.01787" lon="6.51889">
        <ele>1651.2</ele>
        <time>2019-01-15T15:06:03Z</time>
      </trkpt>
      <trkpt lat="46.01785" lon="6.51891">
        <ele>1651.68</ele>
        <time>2019-01-15T15:06:10Z</time>
      </trkpt>
      <trkpt lat="46.01782" lon="6.51892">
        <ele>1651.68</ele>
        <time>2019-01-15T15:06:16Z</time>
      </trkpt>
      <trkpt lat="46.0178" lon="6.51895">
        <ele>1651.2</ele>
        <time>2019-01-15T15:06:18Z</time>
      </trkpt>
      <trkpt lat="46.01779" lon="6.51897">
        <ele>1651.2</ele>
        <time>2019-01-15T15:06:19Z</time>
      </trkpt>
      <trkpt lat="46.01778" lon="6.51899">
        <ele>1650.24</ele>
        <time>2019-01-15T15:06:20Z</time>
      </trkpt>
      <trkpt lat="46.01775" lon="6.51903">
        <ele>1649.28</ele>
        <time>2019-01-15T15:06:21Z</time>
      </trkpt>
      <trkpt lat="46.0177" lon="6.51915">
        <ele>1649.28</ele>
        <time>2019-01-15T15:06:23Z</time>
      </trkpt>
      <trkpt lat="46.01767" lon="6.5192">
        <ele>1648.32</ele>
        <time>2019-01-15T15:06:24Z</time>
      </trkpt>
      <trkpt lat="46.01765" lon="6.51924">
        <ele>1645.91</ele>
        <time>2019-01-15T15:06:25Z</time>
      </trkpt>
      <trkpt lat="46.01764" lon="6.51926">
        <ele>1642.55</ele>
        <time>2019-01-15T15:06:27Z</time>
      </trkpt>
      <trkpt lat="46.01764" lon="6.51926">
        <ele>1641.11</ele>
        <time>2019-01-15T15:06:29Z</time>
      </trkpt>
      <trkpt lat="46.01758" lon="6.51917">
        <ele>1640.63</ele>
        <time>2019-01-15T15:06:43Z</time>
      </trkpt>
      <trkpt lat="46.01755" lon="6.51915">
        <ele>1639.67</ele>
        <time>2019-01-15T15:06:47Z</time>
      </trkpt>
      <trkpt lat="46.0175" lon="6.51913">
        <ele>1636.3</ele>
        <time>2019-01-15T15:06:58Z</time>
      </trkpt>
      <trkpt lat="46.01745" lon="6.51914">
        <ele>1635.82</ele>
        <time>2019-01-15T15:07:04Z</time>
      </trkpt>
      <trkpt lat="46.01743" lon="6.51914">
        <ele>1635.34</ele>
        <time>2019-01-15T15:07:05Z</time>
      </trkpt>
      <trkpt lat="46.01741" lon="6.51914">
        <ele>1633.42</ele>
        <time>2019-01-15T15:07:08Z</time>
      </trkpt>
      <trkpt lat="46.01742" lon="6.51906">
        <ele>1632.94</ele>
        <time>2019-01-15T15:07:21Z</time>
      </trkpt>
      <trkpt lat="46.01743" lon="6.51905">
        <ele>1632.46</ele>
        <time>2019-01-15T15:07:22Z</time>
      </trkpt>
      <trkpt lat="46.01743" lon="6.51905">
        <ele>1631.98</ele>
        <time>2019-01-15T15:07:26Z</time>
      </trkpt>
      <trkpt lat="46.01742" lon="6.51909">
        <ele>1630.05</ele>
        <time>2019-01-15T15:07:28Z</time>
      </trkpt>
      <trkpt lat="46.01742" lon="6.51912">
        <ele>1629.57</ele>
        <time>2019-01-15T15:07:29Z</time>
      </trkpt>
      <trkpt lat="46.01741" lon="6.51914">
        <ele>1628.61</ele>
        <time>2019-01-15T15:07:30Z</time>
      </trkpt>
      <trkpt lat="46.01741" lon="6.51915">
        <ele>1627.65</ele>
        <time>2019-01-15T15:07:31Z</time>
      </trkpt>
      <trkpt lat="46.01739" lon="6.51916">
        <ele>1627.17</ele>
        <time>2019-01-15T15:07:32Z</time>
      </trkpt>
      <trkpt lat="46.01737" lon="6.51916">
        <ele>1626.69</ele>
        <time>2019-01-15T15:07:33Z</time>
      </trkpt>
      <trkpt lat="46.01735" lon="6.51915">
        <ele>1625.73</ele>
        <time>2019-01-15T15:07:34Z</time>
      </trkpt>
      <trkpt lat="46.01733" lon="6.51914">
        <ele>1624.28</ele>
        <time>2019-01-15T15:07:36Z</time>
      </trkpt>
      <trkpt lat="46.01732" lon="6.51913">
        <ele>1622.36</ele>
        <time>2019-01-15T15:07:39Z</time>
      </trkpt>
      <trkpt lat="46.0173" lon="6.51909">
        <ele>1621.88</ele>
        <time>2019-01-15T15:07:53Z</time>
      </trkpt>
      <trkpt lat="46.01734" lon="6.51908">
        <ele>1620.44</ele>
        <time>2019-01-15T15:08:19Z</time>
      </trkpt>
      <trkpt lat="46.01743" lon="6.51911">
        <ele>1623.8</ele>
        <time>2019-01-15T15:08:37Z</time>
      </trkpt>
      <trkpt lat="46.01744" lon="6.51908">
        <ele>1626.69</ele>
        <time>2019-01-15T15:08:55Z</time>
      </trkpt>
      <trkpt lat="46.01745" lon="6.51899">
        <ele>1630.05</ele>
        <time>2019-01-15T15:09:19Z</time>
      </trkpt>
      <trkpt lat="46.01749" lon="6.51899">
        <ele>1631.49</ele>
        <time>2019-01-15T15:09:36Z</time>
      </trkpt>
      <trkpt lat="46.01758" lon="6.51907">
        <ele>1633.9</ele>
        <time>2019-01-15T15:10:20Z</time>
      </trkpt>
      <trkpt lat="46.01758" lon="6.51907">
        <ele>1635.82</ele>
        <time>2019-01-15T15:11:37Z</time>
      </trkpt>
      <trkpt lat="46.01763" lon="6.51906">
        <ele>1637.26</ele>
        <time>2019-01-15T15:11:55Z</time>
      </trkpt>
      <trkpt lat="46.01763" lon="6.51906">
        <ele>1639.19</ele>
        <time>2019-01-15T15:12:12Z</time>
      </trkpt>
      <trkpt lat="46.01766" lon="6.51902">
        <ele>1642.55</ele>
        <time>2019-01-15T15:12:30Z</time>
      </trkpt>
      <trkpt lat="46.01771" lon="6.51895">
        <ele>1645.43</ele>
        <time>2019-01-15T15:12:53Z</time>
      </trkpt>
      <trkpt lat="46.01771" lon="6.51899">
        <ele>1645.91</ele>
        <time>2019-01-15T15:14:03Z</time>
      </trkpt>
      <trkpt lat="46.01771" lon="6.519">
        <ele>1646.4</ele>
        <time>2019-01-15T15:14:48Z</time>
      </trkpt>
      <trkpt lat="46.01781" lon="6.51917">
        <ele>1646.4</ele>
        <time>2019-01-15T15:16:11Z</time>
      </trkpt>
      <trkpt lat="46.01788" lon="6.51914">
        <ele>1646.88</ele>
        <time>2019-01-15T15:16:45Z</time>
      </trkpt>
      <trkpt lat="46.0179" lon="6.51919">
        <ele>1646.4</ele>
        <time>2019-01-15T15:17:22Z</time>
      </trkpt>
      <trkpt lat="46.01792" lon="6.51922">
        <ele>1645.91</ele>
        <time>2019-01-15T15:17:23Z</time>
      </trkpt>
      <trkpt lat="46.01793" lon="6.51925">
        <ele>1645.43</ele>
        <time>2019-01-15T15:17:24Z</time>
      </trkpt>
      <trkpt lat="46.01795" lon="6.51928">
        <ele>1644.95</ele>
        <time>2019-01-15T15:17:25Z</time>
      </trkpt>
      <trkpt lat="46.01798" lon="6.51934">
        <ele>1643.51</ele>
        <time>2019-01-15T15:17:26Z</time>
      </trkpt>
      <trkpt lat="46.01801" lon="6.51941">
        <ele>1643.03</ele>
        <time>2019-01-15T15:17:27Z</time>
      </trkpt>
      <trkpt lat="46.01802" lon="6.51949">
        <ele>1642.07</ele>
        <time>2019-01-15T15:17:28Z</time>
      </trkpt>
      <trkpt lat="46.01801" lon="6.51959">
        <ele>1640.63</ele>
        <time>2019-01-15T15:17:29Z</time>
      </trkpt>
      <trkpt lat="46.01802" lon="6.51969">
        <ele>1638.22</ele>
        <time>2019-01-15T15:17:30Z</time>
      </trkpt>
      <trkpt lat="46.01802" lon="6.51979">
        <ele>1635.34</ele>
        <time>2019-01-15T15:17:31Z</time>
      </trkpt>
      <trkpt lat="46.01801" lon="6.51988">
        <ele>1632.94</ele>
        <time>2019-01-15T15:17:32Z</time>
      </trkpt>
      <trkpt lat="46.01799" lon="6.51997">
        <ele>1629.57</ele>
        <time>2019-01-15T15:17:33Z</time>
      </trkpt>
      <trkpt lat="46.01797" lon="6.52004">
        <ele>1627.65</ele>
        <time>2019-01-15T15:17:34Z</time>
      </trkpt>
      <trkpt lat="46.01796" lon="6.52011">
        <ele>1624.28</ele>
        <time>2019-01-15T15:17:35Z</time>
      </trkpt>
      <trkpt lat="46.01794" lon="6.52016">
        <ele>1620.92</ele>
        <time>2019-01-15T15:17:36Z</time>
      </trkpt>
      <trkpt lat="46.01791" lon="6.52019">
        <ele>1618.04</ele>
        <time>2019-01-15T15:17:37Z</time>
      </trkpt>
      <trkpt lat="46.01788" lon="6.52022">
        <ele>1615.15</ele>
        <time>2019-01-15T15:17:38Z</time>
      </trkpt>
      <trkpt lat="46.01785" lon="6.52027">
        <ele>1613.23</ele>
        <time>2019-01-15T15:17:39Z</time>
      </trkpt>
      <trkpt lat="46.01781" lon="6.52031">
        <ele>1611.79</ele>
        <time>2019-01-15T15:17:40Z</time>
      </trkpt>
      <trkpt lat="46.01777" lon="6.52032">
        <ele>1608.9</ele>
        <time>2019-01-15T15:17:41Z</time>
      </trkpt>
      <trkpt lat="46.01774" lon="6.52032">
        <ele>1607.46</ele>
        <time>2019-01-15T15:17:42Z</time>
      </trkpt>
      <trkpt lat="46.01769" lon="6.52031">
        <ele>1606.02</ele>
        <time>2019-01-15T15:17:43Z</time>
      </trkpt>
      <trkpt lat="46.01763" lon="6.52028">
        <ele>1604.1</ele>
        <time>2019-01-15T15:17:44Z</time>
      </trkpt>
      <trkpt lat="46.01758" lon="6.52024">
        <ele>1603.14</ele>
        <time>2019-01-15T15:17:45Z</time>
      </trkpt>
      <trkpt lat="46.01753" lon="6.5202">
        <ele>1601.69</ele>
        <time>2019-01-15T15:17:46Z</time>
      </trkpt>
      <trkpt lat="46.01751" lon="6.52012">
        <ele>1600.73</ele>
        <time>2019-01-15T15:17:47Z</time>
      </trkpt>
      <trkpt lat="46.01747" lon="6.52007">
        <ele>1599.77</ele>
        <time>2019-01-15T15:17:48Z</time>
      </trkpt>
      <trkpt lat="46.01745" lon="6.52002">
        <ele>1598.81</ele>
        <time>2019-01-15T15:17:49Z</time>
      </trkpt>
      <trkpt lat="46.01742" lon="6.51997">
        <ele>1597.85</ele>
        <time>2019-01-15T15:17:50Z</time>
      </trkpt>
      <trkpt lat="46.01738" lon="6.51993">
        <ele>1597.37</ele>
        <time>2019-01-15T15:17:51Z</time>
      </trkpt>
      <trkpt lat="46.01735" lon="6.51989">
        <ele>1595.45</ele>
        <time>2019-01-15T15:17:52Z</time>
      </trkpt>
      <trkpt lat="46.01733" lon="6.51984">
        <ele>1594.96</ele>
        <time>2019-01-15T15:17:53Z</time>
      </trkpt>
      <trkpt lat="46.01731" lon="6.5198">
        <ele>1594.96</ele>
        <time>2019-01-15T15:17:54Z</time>
      </trkpt>
      <trkpt lat="46.0173" lon="6.51977">
        <ele>1594.96</ele>
        <time>2019-01-15T15:17:55Z</time>
      </trkpt>
      <trkpt lat="46.01729" lon="6.51975">
        <ele>1594.96</ele>
        <time>2019-01-15T15:17:56Z</time>
      </trkpt>
      <trkpt lat="46.01728" lon="6.51973">
        <ele>1594.96</ele>
        <time>2019-01-15T15:17:57Z</time>
      </trkpt>
      <trkpt lat="46.01728" lon="6.51971">
        <ele>1594.96</ele>
        <time>2019-01-15T15:17:58Z</time>
      </trkpt>
      <trkpt lat="46.01727" lon="6.51969">
        <ele>1594.96</ele>
        <time>2019-01-15T15:17:59Z</time>
      </trkpt>
      <trkpt lat="46.01723" lon="6.51962">
        <ele>1595.45</ele>
        <time>2019-01-15T15:18:08Z</time>
      </trkpt>
      <trkpt lat="46.01721" lon="6.51954">
        <ele>1594.96</ele>
        <time>2019-01-15T15:18:11Z</time>
      </trkpt>
      <trkpt lat="46.0172" lon="6.51951">
        <ele>1594.96</ele>
        <time>2019-01-15T15:18:12Z</time>
      </trkpt>
      <trkpt lat="46.01719" lon="6.51946">
        <ele>1594.48</ele>
        <time>2019-01-15T15:18:13Z</time>
      </trkpt>
      <trkpt lat="46.01718" lon="6.51941">
        <ele>1594</ele>
        <time>2019-01-15T15:18:14Z</time>
      </trkpt>
      <trkpt lat="46.01716" lon="6.51938">
        <ele>1593.04</ele>
        <time>2019-01-15T15:18:15Z</time>
      </trkpt>
      <trkpt lat="46.01714" lon="6.51939">
        <ele>1592.56</ele>
        <time>2019-01-15T15:18:16Z</time>
      </trkpt>
      <trkpt lat="46.01712" lon="6.51943">
        <ele>1592.08</ele>
        <time>2019-01-15T15:18:17Z</time>
      </trkpt>
      <trkpt lat="46.01709" lon="6.51948">
        <ele>1590.64</ele>
        <time>2019-01-15T15:18:18Z</time>
      </trkpt>
      <trkpt lat="46.01706" lon="6.51951">
        <ele>1588.24</ele>
        <time>2019-01-15T15:18:19Z</time>
      </trkpt>
      <trkpt lat="46.01703" lon="6.51952">
        <ele>1586.31</ele>
        <time>2019-01-15T15:18:20Z</time>
      </trkpt>
      <trkpt lat="46.01701" lon="6.51952">
        <ele>1584.39</ele>
        <time>2019-01-15T15:18:21Z</time>
      </trkpt>
      <trkpt lat="46.01696" lon="6.51952">
        <ele>1582.95</ele>
        <time>2019-01-15T15:18:22Z</time>
      </trkpt>
      <trkpt lat="46.01691" lon="6.51951">
        <ele>1581.51</ele>
        <time>2019-01-15T15:18:23Z</time>
      </trkpt>
      <trkpt lat="46.01682" lon="6.51946">
        <ele>1577.18</ele>
        <time>2019-01-15T15:18:25Z</time>
      </trkpt>
      <trkpt lat="46.01675" lon="6.51942">
        <ele>1573.82</ele>
        <time>2019-01-15T15:18:27Z</time>
      </trkpt>
      <trkpt lat="46.01672" lon="6.5194">
        <ele>1571.89</ele>
        <time>2019-01-15T15:18:30Z</time>
      </trkpt>
      <trkpt lat="46.0167" lon="6.51928">
        <ele>1571.89</ele>
        <time>2019-01-15T15:18:49Z</time>
      </trkpt>
      <trkpt lat="46.01669" lon="6.51926">
        <ele>1571.89</ele>
        <time>2019-01-15T15:18:50Z</time>
      </trkpt>
      <trkpt lat="46.01666" lon="6.51924">
        <ele>1570.93</ele>
        <time>2019-01-15T15:18:52Z</time>
      </trkpt>
      <trkpt lat="46.01658" lon="6.51927">
        <ele>1568.05</ele>
        <time>2019-01-15T15:18:53Z</time>
      </trkpt>
      <trkpt lat="46.01642" lon="6.51926">
        <ele>1562.28</ele>
        <time>2019-01-15T15:18:55Z</time>
      </trkpt>
      <trkpt lat="46.01634" lon="6.51924">
        <ele>1558.43</ele>
        <time>2019-01-15T15:18:56Z</time>
      </trkpt>
      <trkpt lat="46.01628" lon="6.51923">
        <ele>1554.11</ele>
        <time>2019-01-15T15:18:57Z</time>
      </trkpt>
      <trkpt lat="46.0162" lon="6.51922">
        <ele>1550.74</ele>
        <time>2019-01-15T15:18:59Z</time>
      </trkpt>
      <trkpt lat="46.01614" lon="6.51921">
        <ele>1548.82</ele>
        <time>2019-01-15T15:19:01Z</time>
      </trkpt>
      <trkpt lat="46.01613" lon="6.5192">
        <ele>1548.34</ele>
        <time>2019-01-15T15:19:02Z</time>
      </trkpt>
      <trkpt lat="46.01612" lon="6.51918">
        <ele>1547.38</ele>
        <time>2019-01-15T15:19:04Z</time>
      </trkpt>
      <trkpt lat="46.01611" lon="6.51914">
        <ele>1546.42</ele>
        <time>2019-01-15T15:19:45Z</time>
      </trkpt>
      <trkpt lat="46.01609" lon="6.51913">
        <ele>1546.42</ele>
        <time>2019-01-15T15:19:46Z</time>
      </trkpt>
      <trkpt lat="46.01607" lon="6.51912">
        <ele>1546.42</ele>
        <time>2019-01-15T15:19:47Z</time>
      </trkpt>
      <trkpt lat="46.01587" lon="6.51906">
        <ele>1542.57</ele>
        <time>2019-01-15T15:19:51Z</time>
      </trkpt>
      <trkpt lat="46.01582" lon="6.51906">
        <ele>1541.13</ele>
        <time>2019-01-15T15:19:52Z</time>
      </trkpt>
      <trkpt lat="46.01577" lon="6.51907">
        <ele>1540.65</ele>
        <time>2019-01-15T15:19:53Z</time>
      </trkpt>
      <trkpt lat="46.01568" lon="6.51911">
        <ele>1536.8</ele>
        <time>2019-01-15T15:19:55Z</time>
      </trkpt>
      <trkpt lat="46.01561" lon="6.51916">
        <ele>1535.84</ele>
        <time>2019-01-15T15:19:57Z</time>
      </trkpt>
      <trkpt lat="46.01539" lon="6.51934">
        <ele>1532.48</ele>
        <time>2019-01-15T15:20:05Z</time>
      </trkpt>
      <trkpt lat="46.01522" lon="6.51949">
        <ele>1529.59</ele>
        <time>2019-01-15T15:20:12Z</time>
      </trkpt>
      <trkpt lat="46.01521" lon="6.51958">
        <ele>1528.15</ele>
        <time>2019-01-15T15:20:15Z</time>
      </trkpt>
      <trkpt lat="46.01521" lon="6.51958">
        <ele>1527.67</ele>
        <time>2019-01-15T15:20:16Z</time>
      </trkpt>
      <trkpt lat="46.01522" lon="6.51959">
        <ele>1527.19</ele>
        <time>2019-01-15T15:21:14Z</time>
      </trkpt>
      <trkpt lat="46.01522" lon="6.51957">
        <ele>1527.19</ele>
        <time>2019-01-15T15:21:39Z</time>
      </trkpt>
      <trkpt lat="46.01523" lon="6.51957">
        <ele>1527.19</ele>
        <time>2019-01-15T15:22:02Z</time>
      </trkpt>
      <trkpt lat="46.01521" lon="6.5196">
        <ele>1527.19</ele>
        <time>2019-01-15T15:22:21Z</time>
      </trkpt>
      <trkpt lat="46.01518" lon="6.51961">
        <ele>1526.71</ele>
        <time>2019-01-15T15:22:22Z</time>
      </trkpt>
      <trkpt lat="46.01507" lon="6.51968">
        <ele>1524.79</ele>
        <time>2019-01-15T15:22:25Z</time>
      </trkpt>
      <trkpt lat="46.01502" lon="6.51972">
        <ele>1523.35</ele>
        <time>2019-01-15T15:22:26Z</time>
      </trkpt>
      <trkpt lat="46.01498" lon="6.51977">
        <ele>1522.39</ele>
        <time>2019-01-15T15:22:27Z</time>
      </trkpt>
      <trkpt lat="46.01493" lon="6.51984">
        <ele>1519.02</ele>
        <time>2019-01-15T15:22:28Z</time>
      </trkpt>
      <trkpt lat="46.01489" lon="6.5199">
        <ele>1517.1</ele>
        <time>2019-01-15T15:22:29Z</time>
      </trkpt>
      <trkpt lat="46.01485" lon="6.51998">
        <ele>1514.21</ele>
        <time>2019-01-15T15:22:30Z</time>
      </trkpt>
      <trkpt lat="46.0148" lon="6.52004">
        <ele>1511.33</ele>
        <time>2019-01-15T15:22:31Z</time>
      </trkpt>
      <trkpt lat="46.01476" lon="6.52009">
        <ele>1508.93</ele>
        <time>2019-01-15T15:22:32Z</time>
      </trkpt>
      <trkpt lat="46.01471" lon="6.52016">
        <ele>1504.12</ele>
        <time>2019-01-15T15:22:34Z</time>
      </trkpt>
      <trkpt lat="46.01469" lon="6.52016">
        <ele>1503.16</ele>
        <time>2019-01-15T15:22:35Z</time>
      </trkpt>
      <trkpt lat="46.01467" lon="6.52019">
        <ele>1501.72</ele>
        <time>2019-01-15T15:22:36Z</time>
      </trkpt>
      <trkpt lat="46.01465" lon="6.52023">
        <ele>1499.79</ele>
        <time>2019-01-15T15:22:37Z</time>
      </trkpt>
      <trkpt lat="46.01462" lon="6.52027">
        <ele>1497.87</ele>
        <time>2019-01-15T15:22:38Z</time>
      </trkpt>
      <trkpt lat="46.01459" lon="6.52031">
        <ele>1495.47</ele>
        <time>2019-01-15T15:22:39Z</time>
      </trkpt>
      <trkpt lat="46.01457" lon="6.52031">
        <ele>1493.55</ele>
        <time>2019-01-15T15:22:40Z</time>
      </trkpt>
      <trkpt lat="46.01453" lon="6.52029">
        <ele>1492.1</ele>
        <time>2019-01-15T15:22:41Z</time>
      </trkpt>
      <trkpt lat="46.01449" lon="6.52028">
        <ele>1489.22</ele>
        <time>2019-01-15T15:22:42Z</time>
      </trkpt>
      <trkpt lat="46.01446" lon="6.52032">
        <ele>1487.78</ele>
        <time>2019-01-15T15:22:43Z</time>
      </trkpt>
      <trkpt lat="46.01445" lon="6.52039">
        <ele>1486.82</ele>
        <time>2019-01-15T15:22:44Z</time>
      </trkpt>
      <trkpt lat="46.01443" lon="6.52046">
        <ele>1484.41</ele>
        <time>2019-01-15T15:22:45Z</time>
      </trkpt>
      <trkpt lat="46.01439" lon="6.52058">
        <ele>1479.61</ele>
        <time>2019-01-15T15:22:47Z</time>
      </trkpt>
      <trkpt lat="46.01435" lon="6.52066">
        <ele>1475.76</ele>
        <time>2019-01-15T15:22:49Z</time>
      </trkpt>
      <trkpt lat="46.01435" lon="6.52072">
        <ele>1474.32</ele>
        <time>2019-01-15T15:22:50Z</time>
      </trkpt>
      <trkpt lat="46.01435" lon="6.52077">
        <ele>1472.88</ele>
        <time>2019-01-15T15:22:51Z</time>
      </trkpt>
      <trkpt lat="46.01436" lon="6.52079">
        <ele>1471.92</ele>
        <time>2019-01-15T15:22:52Z</time>
      </trkpt>
      <trkpt lat="46.01436" lon="6.52086">
        <ele>1469.51</ele>
        <time>2019-01-15T15:22:56Z</time>
      </trkpt>
      <trkpt lat="46.01435" lon="6.52089">
        <ele>1469.03</ele>
        <time>2019-01-15T15:22:57Z</time>
      </trkpt>
      <trkpt lat="46.01433" lon="6.52092">
        <ele>1468.07</ele>
        <time>2019-01-15T15:22:58Z</time>
      </trkpt>
      <trkpt lat="46.01433" lon="6.52094">
        <ele>1467.11</ele>
        <time>2019-01-15T15:22:59Z</time>
      </trkpt>
      <trkpt lat="46.01432" lon="6.52093">
        <ele>1464.23</ele>
        <time>2019-01-15T15:23:03Z</time>
      </trkpt>
      <trkpt lat="46.01433" lon="6.52092">
        <ele>1464.23</ele>
        <time>2019-01-15T15:23:19Z</time>
      </trkpt>
      <trkpt lat="46.01432" lon="6.52095">
        <ele>1464.23</ele>
        <time>2019-01-15T15:23:52Z</time>
      </trkpt>
      <trkpt lat="46.0143" lon="6.52098">
        <ele>1464.23</ele>
        <time>2019-01-15T15:24:01Z</time>
      </trkpt>
      <trkpt lat="46.01428" lon="6.521">
        <ele>1463.74</ele>
        <time>2019-01-15T15:24:02Z</time>
      </trkpt>
      <trkpt lat="46.01424" lon="6.52101">
        <ele>1462.78</ele>
        <time>2019-01-15T15:24:03Z</time>
      </trkpt>
      <trkpt lat="46.01421" lon="6.521">
        <ele>1461.34</ele>
        <time>2019-01-15T15:24:04Z</time>
      </trkpt>
      <trkpt lat="46.01418" lon="6.52098">
        <ele>1460.38</ele>
        <time>2019-01-15T15:24:05Z</time>
      </trkpt>
      <trkpt lat="46.01416" lon="6.52095">
        <ele>1459.42</ele>
        <time>2019-01-15T15:24:06Z</time>
      </trkpt>
      <trkpt lat="46.01407" lon="6.52083">
        <ele>1455.57</ele>
        <time>2019-01-15T15:24:12Z</time>
      </trkpt>
      <trkpt lat="46.01407" lon="6.52083">
        <ele>1455.57</ele>
        <time>2019-01-15T15:24:13Z</time>
      </trkpt>
      <trkpt lat="46.01405" lon="6.52083">
        <ele>1454.61</ele>
        <time>2019-01-15T15:24:19Z</time>
      </trkpt>
      <trkpt lat="46.01404" lon="6.52085">
        <ele>1454.13</ele>
        <time>2019-01-15T15:24:20Z</time>
      </trkpt>
      <trkpt lat="46.01401" lon="6.52088">
        <ele>1452.21</ele>
        <time>2019-01-15T15:24:21Z</time>
      </trkpt>
      <trkpt lat="46.01396" lon="6.52095">
        <ele>1449.32</ele>
        <time>2019-01-15T15:24:23Z</time>
      </trkpt>
      <trkpt lat="46.01395" lon="6.52101">
        <ele>1447.88</ele>
        <time>2019-01-15T15:24:24Z</time>
      </trkpt>
      <trkpt lat="46.01396" lon="6.52109">
        <ele>1445.48</ele>
        <time>2019-01-15T15:24:25Z</time>
      </trkpt>
      <trkpt lat="46.01396" lon="6.52117">
        <ele>1443.08</ele>
        <time>2019-01-15T15:24:26Z</time>
      </trkpt>
      <trkpt lat="46.01394" lon="6.52124">
        <ele>1441.15</ele>
        <time>2019-01-15T15:24:27Z</time>
      </trkpt>
      <trkpt lat="46.01392" lon="6.52131">
        <ele>1439.71</ele>
        <time>2019-01-15T15:24:28Z</time>
      </trkpt>
      <trkpt lat="46.01392" lon="6.52138">
        <ele>1436.83</ele>
        <time>2019-01-15T15:24:29Z</time>
      </trkpt>
      <trkpt lat="46.01392" lon="6.52146">
        <ele>1435.39</ele>
        <time>2019-01-15T15:24:30Z</time>
      </trkpt>
      <trkpt lat="46.01393" lon="6.52154">
        <ele>1432.98</ele>
        <time>2019-01-15T15:24:31Z</time>
      </trkpt>
      <trkpt lat="46.01394" lon="6.52163">
        <ele>1430.1</ele>
        <time>2019-01-15T15:24:32Z</time>
      </trkpt>
      <trkpt lat="46.01394" lon="6.52172">
        <ele>1427.7</ele>
        <time>2019-01-15T15:24:33Z</time>
      </trkpt>
      <trkpt lat="46.01394" lon="6.5218">
        <ele>1425.29</ele>
        <time>2019-01-15T15:24:34Z</time>
      </trkpt>
      <trkpt lat="46.01392" lon="6.52186">
        <ele>1422.89</ele>
        <time>2019-01-15T15:24:35Z</time>
      </trkpt>
      <trkpt lat="46.01391" lon="6.52193">
        <ele>1420.49</ele>
        <time>2019-01-15T15:24:36Z</time>
      </trkpt>
      <trkpt lat="46.01389" lon="6.522">
        <ele>1418.08</ele>
        <time>2019-01-15T15:24:37Z</time>
      </trkpt>
      <trkpt lat="46.01386" lon="6.52203">
        <ele>1414.72</ele>
        <time>2019-01-15T15:24:38Z</time>
      </trkpt>
      <trkpt lat="46.01383" lon="6.52206">
        <ele>1412.31</ele>
        <time>2019-01-15T15:24:39Z</time>
      </trkpt>
      <trkpt lat="46.01382" lon="6.52211">
        <ele>1409.43</ele>
        <time>2019-01-15T15:24:40Z</time>
      </trkpt>
      <trkpt lat="46.01378" lon="6.52212">
        <ele>1407.03</ele>
        <time>2019-01-15T15:24:41Z</time>
      </trkpt>
      <trkpt lat="46.01374" lon="6.52214">
        <ele>1405.1</ele>
        <time>2019-01-15T15:24:42Z</time>
      </trkpt>
      <trkpt lat="46.01374" lon="6.52213">
        <ele>1402.7</ele>
        <time>2019-01-15T15:24:43Z</time>
      </trkpt>
      <trkpt lat="46.01373" lon="6.52211">
        <ele>1399.82</ele>
        <time>2019-01-15T15:24:47Z</time>
      </trkpt>
      <trkpt lat="46.01373" lon="6.52207">
        <ele>1399.82</ele>
        <time>2019-01-15T15:25:54Z</time>
      </trkpt>
      <trkpt lat="46.01371" lon="6.52203">
        <ele>1399.82</ele>
        <time>2019-01-15T15:26:33Z</time>
      </trkpt>
      <trkpt lat="46.01371" lon="6.52204">
        <ele>1399.82</ele>
        <time>2019-01-15T15:26:39Z</time>
      </trkpt>
      <trkpt lat="46.0137" lon="6.52205">
        <ele>1399.82</ele>
        <time>2019-01-15T15:26:40Z</time>
      </trkpt>
      <trkpt lat="46.01357" lon="6.52189">
        <ele>1395.49</ele>
        <time>2019-01-15T15:26:49Z</time>
      </trkpt>
      <trkpt lat="46.01352" lon="6.52182">
        <ele>1394.53</ele>
        <time>2019-01-15T15:26:50Z</time>
      </trkpt>
      <trkpt lat="46.0134" lon="6.52164">
        <ele>1388.76</ele>
        <time>2019-01-15T15:26:52Z</time>
      </trkpt>
      <trkpt lat="46.01333" lon="6.52155">
        <ele>1385.4</ele>
        <time>2019-01-15T15:26:53Z</time>
      </trkpt>
      <trkpt lat="46.01326" lon="6.52147">
        <ele>1382.51</ele>
        <time>2019-01-15T15:26:54Z</time>
      </trkpt>
      <trkpt lat="46.01313" lon="6.52133">
        <ele>1378.19</ele>
        <time>2019-01-15T15:26:56Z</time>
      </trkpt>
      <trkpt lat="46.01286" lon="6.52108">
        <ele>1375.3</ele>
        <time>2019-01-15T15:27:00Z</time>
      </trkpt>
      <trkpt lat="46.01279" lon="6.52101">
        <ele>1374.82</ele>
        <time>2019-01-15T15:27:01Z</time>
      </trkpt>
      <trkpt lat="46.01252" lon="6.52072">
        <ele>1369.05</ele>
        <time>2019-01-15T15:27:05Z</time>
      </trkpt>
      <trkpt lat="46.01237" lon="6.52057">
        <ele>1364.73</ele>
        <time>2019-01-15T15:27:07Z</time>
      </trkpt>
      <trkpt lat="46.01222" lon="6.52043">
        <ele>1359.92</ele>
        <time>2019-01-15T15:27:09Z</time>
      </trkpt>
      <trkpt lat="46.01209" lon="6.52031">
        <ele>1356.56</ele>
        <time>2019-01-15T15:27:11Z</time>
      </trkpt>
      <trkpt lat="46.01202" lon="6.52025">
        <ele>1354.63</ele>
        <time>2019-01-15T15:27:12Z</time>
      </trkpt>
      <trkpt lat="46.01181" lon="6.52009">
        <ele>1348.87</ele>
        <time>2019-01-15T15:27:15Z</time>
      </trkpt>
      <trkpt lat="46.01175" lon="6.52001">
        <ele>1346.46</ele>
        <time>2019-01-15T15:27:16Z</time>
      </trkpt>
      <trkpt lat="46.01169" lon="6.51991">
        <ele>1344.54</ele>
        <time>2019-01-15T15:27:17Z</time>
      </trkpt>
      <trkpt lat="46.01142" lon="6.51959">
        <ele>1341.18</ele>
        <time>2019-01-15T15:27:21Z</time>
      </trkpt>
      <trkpt lat="46.01135" lon="6.51954">
        <ele>1337.81</ele>
        <time>2019-01-15T15:27:22Z</time>
      </trkpt>
      <trkpt lat="46.01121" lon="6.51946">
        <ele>1334.93</ele>
        <time>2019-01-15T15:27:24Z</time>
      </trkpt>
      <trkpt lat="46.0111" lon="6.51937">
        <ele>1333.97</ele>
        <time>2019-01-15T15:27:26Z</time>
      </trkpt>
      <trkpt lat="46.01079" lon="6.51903">
        <ele>1331.56</ele>
        <time>2019-01-15T15:27:33Z</time>
      </trkpt>
      <trkpt lat="46.01044" lon="6.51854">
        <ele>1330.6</ele>
        <time>2019-01-15T15:27:50Z</time>
      </trkpt>
      <trkpt lat="46.00999" lon="6.51818">
        <ele>1328.68</ele>
        <time>2019-01-15T15:28:11Z</time>
      </trkpt>
      <trkpt lat="46.00961" lon="6.51789">
        <ele>1325.8</ele>
        <time>2019-01-15T15:28:24Z</time>
      </trkpt>
      <trkpt lat="46.00917" lon="6.5176">
        <ele>1322.91</ele>
        <time>2019-01-15T15:28:40Z</time>
      </trkpt>
      <trkpt lat="46.00903" lon="6.5173">
        <ele>1323.87</ele>
        <time>2019-01-15T15:28:57Z</time>
      </trkpt>
      <trkpt lat="46.00902" lon="6.51728">
        <ele>1323.87</ele>
        <time>2019-01-15T15:28:58Z</time>
      </trkpt>
      <trkpt lat="46.00901" lon="6.51727">
        <ele>1323.87</ele>
        <time>2019-01-15T15:28:59Z</time>
      </trkpt>
      <trkpt lat="46.009" lon="6.51725">
        <ele>1323.87</ele>
        <time>2019-01-15T15:29:00Z</time>
      </trkpt>
      <trkpt lat="46.00899" lon="6.51724">
        <ele>1324.35</ele>
        <time>2019-01-15T15:29:01Z</time>
      </trkpt>
      <trkpt lat="46.00882" lon="6.51701">
        <ele>1324.83</ele>
        <time>2019-01-15T15:29:16Z</time>
      </trkpt>
      <trkpt lat="46.00874" lon="6.51686">
        <ele>1324.35</ele>
        <time>2019-01-15T15:29:27Z</time>
      </trkpt>
      <trkpt lat="46.00872" lon="6.51678">
        <ele>1324.35</ele>
        <time>2019-01-15T15:29:38Z</time>
      </trkpt>
      <trkpt lat="46.00871" lon="6.5165">
        <ele>1324.83</ele>
        <time>2019-01-15T15:29:56Z</time>
      </trkpt>
      <trkpt lat="46.00871" lon="6.51648">
        <ele>1324.83</ele>
        <time>2019-01-15T15:29:57Z</time>
      </trkpt>
      <trkpt lat="46.00871" lon="6.51646">
        <ele>1324.83</ele>
        <time>2019-01-15T15:29:58Z</time>
      </trkpt>
      <trkpt lat="46.00871" lon="6.51644">
        <ele>1324.83</ele>
        <time>2019-01-15T15:29:59Z</time>
      </trkpt>
      <trkpt lat="46.00871" lon="6.51642">
        <ele>1325.31</ele>
        <time>2019-01-15T15:30:00Z</time>
      </trkpt>
      <trkpt lat="46.00871" lon="6.5164">
        <ele>1325.31</ele>
        <time>2019-01-15T15:30:01Z</time>
      </trkpt>
      <trkpt lat="46.00871" lon="6.51639">
        <ele>1325.31</ele>
        <time>2019-01-15T15:30:02Z</time>
      </trkpt>
      <trkpt lat="46.00871" lon="6.51636">
        <ele>1325.31</ele>
        <time>2019-01-15T15:30:03Z</time>
      </trkpt>
      <trkpt lat="46.0087" lon="6.51634">
        <ele>1325.31</ele>
        <time>2019-01-15T15:30:04Z</time>
      </trkpt>
      <trkpt lat="46.00871" lon="6.51632">
        <ele>1325.31</ele>
        <time>2019-01-15T15:30:05Z</time>
      </trkpt>
      <trkpt lat="46.0087" lon="6.5163">
        <ele>1325.31</ele>
        <time>2019-01-15T15:30:06Z</time>
      </trkpt>
      <trkpt lat="46.00871" lon="6.51628">
        <ele>1325.31</ele>
        <time>2019-01-15T15:30:07Z</time>
      </trkpt>
      <trkpt lat="46.00871" lon="6.51625">
        <ele>1325.31</ele>
        <time>2019-01-15T15:30:08Z</time>
      </trkpt>
      <trkpt lat="46.00871" lon="6.51623">
        <ele>1325.8</ele>
        <time>2019-01-15T15:30:09Z</time>
      </trkpt>
      <trkpt lat="46.00871" lon="6.5162">
        <ele>1325.8</ele>
        <time>2019-01-15T15:30:10Z</time>
      </trkpt>
      <trkpt lat="46.00871" lon="6.51617">
        <ele>1325.8</ele>
        <time>2019-01-15T15:30:11Z</time>
      </trkpt>
      <trkpt lat="46.00871" lon="6.51615">
        <ele>1325.8</ele>
        <time>2019-01-15T15:30:12Z</time>
      </trkpt>
      <trkpt lat="46.00871" lon="6.51612">
        <ele>1325.8</ele>
        <time>2019-01-15T15:30:13Z</time>
      </trkpt>
      <trkpt lat="46.00878" lon="6.51573">
        <ele>1323.39</ele>
        <time>2019-01-15T15:30:25Z</time>
      </trkpt>
      <trkpt lat="46.00884" lon="6.51551">
        <ele>1320.03</ele>
        <time>2019-01-15T15:30:28Z</time>
      </trkpt>
      <trkpt lat="46.00885" lon="6.51543">
        <ele>1318.59</ele>
        <time>2019-01-15T15:30:29Z</time>
      </trkpt>
      <trkpt lat="46.00885" lon="6.51536">
        <ele>1317.62</ele>
        <time>2019-01-15T15:30:30Z</time>
      </trkpt>
      <trkpt lat="46.00886" lon="6.51508">
        <ele>1314.26</ele>
        <time>2019-01-15T15:30:35Z</time>
      </trkpt>
      <trkpt lat="46.00886" lon="6.51501">
        <ele>1313.3</ele>
        <time>2019-01-15T15:30:36Z</time>
      </trkpt>
      <trkpt lat="46.00884" lon="6.51482">
        <ele>1310.41</ele>
        <time>2019-01-15T15:30:38Z</time>
      </trkpt>
      <trkpt lat="46.00881" lon="6.51473">
        <ele>1309.45</ele>
        <time>2019-01-15T15:30:39Z</time>
      </trkpt>
      <trkpt lat="46.00877" lon="6.51467">
        <ele>1308.01</ele>
        <time>2019-01-15T15:30:40Z</time>
      </trkpt>
      <trkpt lat="46.00872" lon="6.51467">
        <ele>1306.57</ele>
        <time>2019-01-15T15:30:41Z</time>
      </trkpt>
      <trkpt lat="46.00867" lon="6.51472">
        <ele>1305.61</ele>
        <time>2019-01-15T15:30:42Z</time>
      </trkpt>
      <trkpt lat="46.00864" lon="6.51479">
        <ele>1305.13</ele>
        <time>2019-01-15T15:30:43Z</time>
      </trkpt>
      <trkpt lat="46.00861" lon="6.51486">
        <ele>1303.2</ele>
        <time>2019-01-15T15:30:44Z</time>
      </trkpt>
      <trkpt lat="46.0086" lon="6.51495">
        <ele>1302.24</ele>
        <time>2019-01-15T15:30:45Z</time>
      </trkpt>
      <trkpt lat="46.00857" lon="6.51502">
        <ele>1301.28</ele>
        <time>2019-01-15T15:30:46Z</time>
      </trkpt>
      <trkpt lat="46.00854" lon="6.51509">
        <ele>1299.84</ele>
        <time>2019-01-15T15:30:47Z</time>
      </trkpt>
      <trkpt lat="46.00851" lon="6.51514">
        <ele>1298.4</ele>
        <time>2019-01-15T15:30:48Z</time>
      </trkpt>
      <trkpt lat="46.00847" lon="6.51518">
        <ele>1297.44</ele>
        <time>2019-01-15T15:30:49Z</time>
      </trkpt>
      <trkpt lat="46.00842" lon="6.51522">
        <ele>1296.48</ele>
        <time>2019-01-15T15:30:50Z</time>
      </trkpt>
      <trkpt lat="46.00836" lon="6.51526">
        <ele>1295.51</ele>
        <time>2019-01-15T15:30:51Z</time>
      </trkpt>
      <trkpt lat="46.00831" lon="6.51531">
        <ele>1294.07</ele>
        <time>2019-01-15T15:30:52Z</time>
      </trkpt>
      <trkpt lat="46.00826" lon="6.51536">
        <ele>1292.63</ele>
        <time>2019-01-15T15:30:53Z</time>
      </trkpt>
      <trkpt lat="46.00809" lon="6.5155">
        <ele>1288.3</ele>
        <time>2019-01-15T15:30:56Z</time>
      </trkpt>
      <trkpt lat="46.00803" lon="6.51547">
        <ele>1286.38</ele>
        <time>2019-01-15T15:30:57Z</time>
      </trkpt>
      <trkpt lat="46.00798" lon="6.51541">
        <ele>1285.42</ele>
        <time>2019-01-15T15:30:58Z</time>
      </trkpt>
      <trkpt lat="46.00793" lon="6.51533">
        <ele>1283.5</ele>
        <time>2019-01-15T15:30:59Z</time>
      </trkpt>
      <trkpt lat="46.00788" lon="6.51524">
        <ele>1280.61</ele>
        <time>2019-01-15T15:31:00Z</time>
      </trkpt>
      <trkpt lat="46.00779" lon="6.51506">
        <ele>1277.25</ele>
        <time>2019-01-15T15:31:02Z</time>
      </trkpt>
      <trkpt lat="46.00774" lon="6.51497">
        <ele>1277.73</ele>
        <time>2019-01-15T15:31:03Z</time>
      </trkpt>
      <trkpt lat="46.00764" lon="6.5148">
        <ele>1277.25</ele>
        <time>2019-01-15T15:31:05Z</time>
      </trkpt>
      <trkpt lat="46.00759" lon="6.51475">
        <ele>1276.77</ele>
        <time>2019-01-15T15:31:06Z</time>
      </trkpt>
      <trkpt lat="46.00755" lon="6.51471">
        <ele>1276.29</ele>
        <time>2019-01-15T15:31:07Z</time>
      </trkpt>
      <trkpt lat="46.00751" lon="6.51469">
        <ele>1275.81</ele>
        <time>2019-01-15T15:31:08Z</time>
      </trkpt>
      <trkpt lat="46.00747" lon="6.51467">
        <ele>1275.33</ele>
        <time>2019-01-15T15:31:09Z</time>
      </trkpt>
      <trkpt lat="46.00744" lon="6.51466">
        <ele>1275.33</ele>
        <time>2019-01-15T15:31:10Z</time>
      </trkpt>
      <trkpt lat="46.00736" lon="6.51464">
        <ele>1275.33</ele>
        <time>2019-01-15T15:31:12Z</time>
      </trkpt>
      <trkpt lat="46.00724" lon="6.51462">
        <ele>1274.36</ele>
        <time>2019-01-15T15:31:15Z</time>
      </trkpt>
      <trkpt lat="46.00712" lon="6.51462">
        <ele>1271.96</ele>
        <time>2019-01-15T15:31:17Z</time>
      </trkpt>
      <trkpt lat="46.00706" lon="6.51462">
        <ele>1271</ele>
        <time>2019-01-15T15:31:18Z</time>
      </trkpt>
      <trkpt lat="46.00702" lon="6.51463">
        <ele>1271</ele>
        <time>2019-01-15T15:31:19Z</time>
      </trkpt>
      <trkpt lat="46.0068" lon="6.51473">
        <ele>1270.04</ele>
        <time>2019-01-15T15:31:25Z</time>
      </trkpt>
      <trkpt lat="46.00669" lon="6.5148">
        <ele>1268.12</ele>
        <time>2019-01-15T15:31:27Z</time>
      </trkpt>
      <trkpt lat="46.00664" lon="6.51481">
        <ele>1267.16</ele>
        <time>2019-01-15T15:31:28Z</time>
      </trkpt>
      <trkpt lat="46.00658" lon="6.51482">
        <ele>1266.19</ele>
        <time>2019-01-15T15:31:29Z</time>
      </trkpt>
      <trkpt lat="46.00652" lon="6.51484">
        <ele>1265.23</ele>
        <time>2019-01-15T15:31:30Z</time>
      </trkpt>
      <trkpt lat="46.00646" lon="6.51485">
        <ele>1264.75</ele>
        <time>2019-01-15T15:31:31Z</time>
      </trkpt>
      <trkpt lat="46.00636" lon="6.51488">
        <ele>1262.35</ele>
        <time>2019-01-15T15:31:33Z</time>
      </trkpt>
      <trkpt lat="46.00631" lon="6.51491">
        <ele>1261.39</ele>
        <time>2019-01-15T15:31:34Z</time>
      </trkpt>
      <trkpt lat="46.00626" lon="6.51496">
        <ele>1260.43</ele>
        <time>2019-01-15T15:31:35Z</time>
      </trkpt>
      <trkpt lat="46.00618" lon="6.51505">
        <ele>1258.98</ele>
        <time>2019-01-15T15:31:37Z</time>
      </trkpt>
      <trkpt lat="46.00614" lon="6.51509">
        <ele>1258.02</ele>
        <time>2019-01-15T15:31:38Z</time>
      </trkpt>
      <trkpt lat="46.0061" lon="6.51514">
        <ele>1257.06</ele>
        <time>2019-01-15T15:31:39Z</time>
      </trkpt>
      <trkpt lat="46.00607" lon="6.5152">
        <ele>1256.1</ele>
        <time>2019-01-15T15:31:40Z</time>
      </trkpt>
      <trkpt lat="46.00606" lon="6.51527">
        <ele>1255.62</ele>
        <time>2019-01-15T15:31:41Z</time>
      </trkpt>
      <trkpt lat="46.00607" lon="6.51534">
        <ele>1255.14</ele>
        <time>2019-01-15T15:31:42Z</time>
      </trkpt>
      <trkpt lat="46.0061" lon="6.51538">
        <ele>1254.66</ele>
        <time>2019-01-15T15:31:43Z</time>
      </trkpt>
      <trkpt lat="46.00615" lon="6.51542">
        <ele>1253.22</ele>
        <time>2019-01-15T15:31:44Z</time>
      </trkpt>
      <trkpt lat="46.00619" lon="6.51544">
        <ele>1251.77</ele>
        <time>2019-01-15T15:31:45Z</time>
      </trkpt>
      <trkpt lat="46.00624" lon="6.51546">
        <ele>1251.29</ele>
        <time>2019-01-15T15:31:46Z</time>
      </trkpt>
      <trkpt lat="46.00628" lon="6.51549">
        <ele>1250.33</ele>
        <time>2019-01-15T15:31:47Z</time>
      </trkpt>
      <trkpt lat="46.00631" lon="6.51554">
        <ele>1248.89</ele>
        <time>2019-01-15T15:31:48Z</time>
      </trkpt>
      <trkpt lat="46.00633" lon="6.5156">
        <ele>1248.41</ele>
        <time>2019-01-15T15:31:49Z</time>
      </trkpt>
      <trkpt lat="46.00634" lon="6.51567">
        <ele>1246.97</ele>
        <time>2019-01-15T15:31:50Z</time>
      </trkpt>
      <trkpt lat="46.00632" lon="6.51573">
        <ele>1246.01</ele>
        <time>2019-01-15T15:31:51Z</time>
      </trkpt>
      <trkpt lat="46.00629" lon="6.51576">
        <ele>1245.53</ele>
        <time>2019-01-15T15:31:52Z</time>
      </trkpt>
      <trkpt lat="46.00625" lon="6.51578">
        <ele>1244.56</ele>
        <time>2019-01-15T15:31:53Z</time>
      </trkpt>
      <trkpt lat="46.00621" lon="6.51581">
        <ele>1244.08</ele>
        <time>2019-01-15T15:31:54Z</time>
      </trkpt>
      <trkpt lat="46.00594" lon="6.51588">
        <ele>1241.2</ele>
        <time>2019-01-15T15:32:02Z</time>
      </trkpt>
      <trkpt lat="46.00557" lon="6.51585">
        <ele>1237.83</ele>
        <time>2019-01-15T15:32:15Z</time>
      </trkpt>
      <trkpt lat="46.00555" lon="6.51586">
        <ele>1237.83</ele>
        <time>2019-01-15T15:32:16Z</time>
      </trkpt>
      <trkpt lat="46.00544" lon="6.5159">
        <ele>1237.35</ele>
        <time>2019-01-15T15:32:19Z</time>
      </trkpt>
      <trkpt lat="46.0054" lon="6.5159">
        <ele>1236.39</ele>
        <time>2019-01-15T15:32:20Z</time>
      </trkpt>
      <trkpt lat="46.00536" lon="6.5159">
        <ele>1236.39</ele>
        <time>2019-01-15T15:32:21Z</time>
      </trkpt>
      <trkpt lat="46.00532" lon="6.5159">
        <ele>1235.91</ele>
        <time>2019-01-15T15:32:22Z</time>
      </trkpt>
      <trkpt lat="46.00528" lon="6.51591">
        <ele>1235.43</ele>
        <time>2019-01-15T15:32:23Z</time>
      </trkpt>
      <trkpt lat="46.0052" lon="6.5159">
        <ele>1234.47</ele>
        <time>2019-01-15T15:32:25Z</time>
      </trkpt>
      <trkpt lat="46.00516" lon="6.51589">
        <ele>1234.47</ele>
        <time>2019-01-15T15:32:26Z</time>
      </trkpt>
      <trkpt lat="46.00512" lon="6.51586">
        <ele>1233.99</ele>
        <time>2019-01-15T15:32:27Z</time>
      </trkpt>
      <trkpt lat="46.00509" lon="6.51583">
        <ele>1233.51</ele>
        <time>2019-01-15T15:32:28Z</time>
      </trkpt>
      <trkpt lat="46.00506" lon="6.5158">
        <ele>1232.55</ele>
        <time>2019-01-15T15:32:29Z</time>
      </trkpt>
      <trkpt lat="46.00503" lon="6.51576">
        <ele>1232.07</ele>
        <time>2019-01-15T15:32:30Z</time>
      </trkpt>
      <trkpt lat="46.005" lon="6.51573">
        <ele>1231.59</ele>
        <time>2019-01-15T15:32:31Z</time>
      </trkpt>
      <trkpt lat="46.00498" lon="6.51569">
        <ele>1231.11</ele>
        <time>2019-01-15T15:32:32Z</time>
      </trkpt>
      <trkpt lat="46.00496" lon="6.51565">
        <ele>1230.62</ele>
        <time>2019-01-15T15:32:33Z</time>
      </trkpt>
      <trkpt lat="46.00494" lon="6.51561">
        <ele>1229.66</ele>
        <time>2019-01-15T15:32:34Z</time>
      </trkpt>
      <trkpt lat="46.00492" lon="6.51558">
        <ele>1229.18</ele>
        <time>2019-01-15T15:32:35Z</time>
      </trkpt>
      <trkpt lat="46.0049" lon="6.51554">
        <ele>1228.7</ele>
        <time>2019-01-15T15:32:36Z</time>
      </trkpt>
      <trkpt lat="46.00488" lon="6.51552">
        <ele>1228.22</ele>
        <time>2019-01-15T15:32:37Z</time>
      </trkpt>
      <trkpt lat="46.00487" lon="6.5155">
        <ele>1228.22</ele>
        <time>2019-01-15T15:32:38Z</time>
      </trkpt>
      <trkpt lat="46.00485" lon="6.51547">
        <ele>1228.22</ele>
        <time>2019-01-15T15:32:39Z</time>
      </trkpt>
      <trkpt lat="46.00488" lon="6.51506">
        <ele>1229.66</ele>
        <time>2019-01-15T15:34:04Z</time>
      </trkpt>
    </trkseg>
  </trk>
</gpx>